<?xml version="1.0" encoding="UTF-8"?>
<gpx xmlns:xsi="http://www.w3.org/2001/XMLSchema-instance" xsi:schemaLocation="http://www.topografix.com/GPX/1/1 http://www.topografix.com/GPX/1/1/gpx.xsd" creator="StravaGPX" version="1.1" xmlns="http://www.topografix.com/GPX/1/1">
 <metadata>
  <time>2025-11-06T16:40:13Z</time>
 </metadata>
 <trk>
  <name>Nightfall in the demesne</name>
  <type>walking</type>
  <trkseg>
   <trkpt lat="53.4511150" lon="-6.1571100">
    <ele>9.2</ele>
    <time>2025-11-06T16:40:13Z</time>
   </trkpt>
   <trkpt lat="53.4511330" lon="-6.1571870">
    <ele>9.3</ele>
    <time>2025-11-06T16:40:31Z</time>
   </trkpt>
   <trkpt lat="53.4510950" lon="-6.1573040">
    <ele>9.3</ele>
    <time>2025-11-06T16:40:37Z</time>
   </trkpt>
   <trkpt lat="53.4510310" lon="-6.1573440">
    <ele>8.9</ele>
    <time>2025-11-06T16:40:42Z</time>
   </trkpt>
   <trkpt lat="53.4509700" lon="-6.1573380">
    <ele>8.8</ele>
    <time>2025-11-06T16:40:47Z</time>
   </trkpt>
   <trkpt lat="53.4509030" lon="-6.1572700">
    <ele>8.9</ele>
    <time>2025-11-06T16:40:53Z</time>
   </trkpt>
   <trkpt lat="53.4508430" lon="-6.1572160">
    <ele>8.9</ele>
    <time>2025-11-06T16:40:58Z</time>
   </trkpt>
   <trkpt lat="53.4507830" lon="-6.1572090">
    <ele>8.9</ele>
    <time>2025-11-06T16:41:03Z</time>
   </trkpt>
   <trkpt lat="53.4507390" lon="-6.1571790">
    <ele>8.9</ele>
    <time>2025-11-06T16:41:08Z</time>
   </trkpt>
   <trkpt lat="53.4506780" lon="-6.1571460">
    <ele>8.9</ele>
    <time>2025-11-06T16:41:14Z</time>
   </trkpt>
   <trkpt lat="53.4506090" lon="-6.1571350">
    <ele>9.0</ele>
    <time>2025-11-06T16:41:19Z</time>
   </trkpt>
   <trkpt lat="53.4505520" lon="-6.1570600">
    <ele>9.1</ele>
    <time>2025-11-06T16:41:24Z</time>
   </trkpt>
   <trkpt lat="53.4504830" lon="-6.1570140">
    <ele>9.6</ele>
    <time>2025-11-06T16:41:30Z</time>
   </trkpt>
   <trkpt lat="53.4504280" lon="-6.1569820">
    <ele>9.9</ele>
    <time>2025-11-06T16:41:35Z</time>
   </trkpt>
   <trkpt lat="53.4503780" lon="-6.1569820">
    <ele>10.4</ele>
    <time>2025-11-06T16:41:46Z</time>
   </trkpt>
   <trkpt lat="53.4503310" lon="-6.1569450">
    <ele>10.9</ele>
    <time>2025-11-06T16:41:52Z</time>
   </trkpt>
   <trkpt lat="53.4503760" lon="-6.1569410">
    <ele>11.3</ele>
    <time>2025-11-06T16:41:58Z</time>
   </trkpt>
   <trkpt lat="53.4503260" lon="-6.1569000">
    <ele>12.4</ele>
    <time>2025-11-06T16:42:04Z</time>
   </trkpt>
   <trkpt lat="53.4502830" lon="-6.1568740">
    <ele>14.1</ele>
    <time>2025-11-06T16:42:09Z</time>
   </trkpt>
   <trkpt lat="53.4502540" lon="-6.1569440">
    <ele>15.2</ele>
    <time>2025-11-06T16:42:19Z</time>
   </trkpt>
   <trkpt lat="53.4502250" lon="-6.1570030">
    <ele>15.4</ele>
    <time>2025-11-06T16:42:24Z</time>
   </trkpt>
   <trkpt lat="53.4501950" lon="-6.1569460">
    <ele>15.7</ele>
    <time>2025-11-06T16:42:38Z</time>
   </trkpt>
   <trkpt lat="53.4501500" lon="-6.1569210">
    <ele>15.6</ele>
    <time>2025-11-06T16:42:44Z</time>
   </trkpt>
   <trkpt lat="53.4501030" lon="-6.1569440">
    <ele>15.5</ele>
    <time>2025-11-06T16:43:02Z</time>
   </trkpt>
   <trkpt lat="53.4500250" lon="-6.1569520">
    <ele>15.5</ele>
    <time>2025-11-06T16:43:07Z</time>
   </trkpt>
   <trkpt lat="53.4499600" lon="-6.1569820">
    <ele>15.5</ele>
    <time>2025-11-06T16:43:12Z</time>
   </trkpt>
   <trkpt lat="53.4498920" lon="-6.1569950">
    <ele>15.5</ele>
    <time>2025-11-06T16:43:17Z</time>
   </trkpt>
   <trkpt lat="53.4498210" lon="-6.1570140">
    <ele>15.3</ele>
    <time>2025-11-06T16:43:22Z</time>
   </trkpt>
   <trkpt lat="53.4497510" lon="-6.1570110">
    <ele>15.3</ele>
    <time>2025-11-06T16:43:27Z</time>
   </trkpt>
   <trkpt lat="53.4496900" lon="-6.1570310">
    <ele>15.5</ele>
    <time>2025-11-06T16:43:33Z</time>
   </trkpt>
   <trkpt lat="53.4496280" lon="-6.1570720">
    <ele>15.5</ele>
    <time>2025-11-06T16:43:38Z</time>
   </trkpt>
   <trkpt lat="53.4495980" lon="-6.1571980">
    <ele>15.5</ele>
    <time>2025-11-06T16:43:43Z</time>
   </trkpt>
   <trkpt lat="53.4495960" lon="-6.1573260">
    <ele>15.4</ele>
    <time>2025-11-06T16:43:49Z</time>
   </trkpt>
   <trkpt lat="53.4495980" lon="-6.1574530">
    <ele>15.3</ele>
    <time>2025-11-06T16:43:54Z</time>
   </trkpt>
   <trkpt lat="53.4496070" lon="-6.1575620">
    <ele>14.7</ele>
    <time>2025-11-06T16:43:59Z</time>
   </trkpt>
   <trkpt lat="53.4496020" lon="-6.1576960">
    <ele>14.3</ele>
    <time>2025-11-06T16:44:04Z</time>
   </trkpt>
   <trkpt lat="53.4496100" lon="-6.1578080">
    <ele>14.1</ele>
    <time>2025-11-06T16:44:09Z</time>
   </trkpt>
   <trkpt lat="53.4496040" lon="-6.1579260">
    <ele>14.0</ele>
    <time>2025-11-06T16:44:15Z</time>
   </trkpt>
   <trkpt lat="53.4495800" lon="-6.1580170">
    <ele>13.9</ele>
    <time>2025-11-06T16:44:20Z</time>
   </trkpt>
   <trkpt lat="53.4495610" lon="-6.1581150">
    <ele>13.9</ele>
    <time>2025-11-06T16:44:25Z</time>
   </trkpt>
   <trkpt lat="53.4495340" lon="-6.1582020">
    <ele>13.9</ele>
    <time>2025-11-06T16:44:31Z</time>
   </trkpt>
   <trkpt lat="53.4494960" lon="-6.1582980">
    <ele>13.9</ele>
    <time>2025-11-06T16:44:36Z</time>
   </trkpt>
   <trkpt lat="53.4494340" lon="-6.1582940">
    <ele>13.8</ele>
    <time>2025-11-06T16:44:41Z</time>
   </trkpt>
   <trkpt lat="53.4493680" lon="-6.1582980">
    <ele>13.6</ele>
    <time>2025-11-06T16:44:46Z</time>
   </trkpt>
   <trkpt lat="53.4493170" lon="-6.1583040">
    <ele>13.6</ele>
    <time>2025-11-06T16:44:51Z</time>
   </trkpt>
   <trkpt lat="53.4492490" lon="-6.1583110">
    <ele>13.9</ele>
    <time>2025-11-06T16:44:57Z</time>
   </trkpt>
   <trkpt lat="53.4491600" lon="-6.1582980">
    <ele>14.3</ele>
    <time>2025-11-06T16:45:02Z</time>
   </trkpt>
   <trkpt lat="53.4490850" lon="-6.1583050">
    <ele>14.8</ele>
    <time>2025-11-06T16:45:07Z</time>
   </trkpt>
   <trkpt lat="53.4490190" lon="-6.1583140">
    <ele>15.0</ele>
    <time>2025-11-06T16:45:12Z</time>
   </trkpt>
   <trkpt lat="53.4489640" lon="-6.1583760">
    <ele>15.3</ele>
    <time>2025-11-06T16:45:17Z</time>
   </trkpt>
   <trkpt lat="53.4489150" lon="-6.1584550">
    <ele>15.1</ele>
    <time>2025-11-06T16:45:23Z</time>
   </trkpt>
   <trkpt lat="53.4488880" lon="-6.1585500">
    <ele>14.4</ele>
    <time>2025-11-06T16:45:28Z</time>
   </trkpt>
   <trkpt lat="53.4488500" lon="-6.1585970">
    <ele>12.9</ele>
    <time>2025-11-06T16:45:46Z</time>
   </trkpt>
   <trkpt lat="53.4487720" lon="-6.1586330">
    <ele>13.1</ele>
    <time>2025-11-06T16:45:51Z</time>
   </trkpt>
   <trkpt lat="53.4486980" lon="-6.1585880">
    <ele>13.8</ele>
    <time>2025-11-06T16:45:56Z</time>
   </trkpt>
   <trkpt lat="53.4486290" lon="-6.1585780">
    <ele>14.1</ele>
    <time>2025-11-06T16:46:02Z</time>
   </trkpt>
   <trkpt lat="53.4485600" lon="-6.1585810">
    <ele>14.1</ele>
    <time>2025-11-06T16:46:07Z</time>
   </trkpt>
   <trkpt lat="53.4484780" lon="-6.1586190">
    <ele>14.5</ele>
    <time>2025-11-06T16:46:12Z</time>
   </trkpt>
   <trkpt lat="53.4484200" lon="-6.1586300">
    <ele>14.8</ele>
    <time>2025-11-06T16:46:17Z</time>
   </trkpt>
   <trkpt lat="53.4483740" lon="-6.1586600">
    <ele>15.0</ele>
    <time>2025-11-06T16:46:22Z</time>
   </trkpt>
   <trkpt lat="53.4483210" lon="-6.1586760">
    <ele>15.5</ele>
    <time>2025-11-06T16:46:27Z</time>
   </trkpt>
   <trkpt lat="53.4482470" lon="-6.1586740">
    <ele>15.6</ele>
    <time>2025-11-06T16:46:32Z</time>
   </trkpt>
   <trkpt lat="53.4481440" lon="-6.1586360">
    <ele>15.7</ele>
    <time>2025-11-06T16:46:38Z</time>
   </trkpt>
   <trkpt lat="53.4480750" lon="-6.1586090">
    <ele>15.7</ele>
    <time>2025-11-06T16:46:43Z</time>
   </trkpt>
   <trkpt lat="53.4480220" lon="-6.1585990">
    <ele>15.6</ele>
    <time>2025-11-06T16:46:48Z</time>
   </trkpt>
   <trkpt lat="53.4479640" lon="-6.1586410">
    <ele>15.1</ele>
    <time>2025-11-06T16:46:53Z</time>
   </trkpt>
   <trkpt lat="53.4479070" lon="-6.1586570">
    <ele>14.5</ele>
    <time>2025-11-06T16:46:58Z</time>
   </trkpt>
   <trkpt lat="53.4478550" lon="-6.1586780">
    <ele>14.3</ele>
    <time>2025-11-06T16:47:03Z</time>
   </trkpt>
   <trkpt lat="53.4477940" lon="-6.1587160">
    <ele>14.5</ele>
    <time>2025-11-06T16:47:08Z</time>
   </trkpt>
   <trkpt lat="53.4477320" lon="-6.1587470">
    <ele>14.6</ele>
    <time>2025-11-06T16:47:13Z</time>
   </trkpt>
   <trkpt lat="53.4476590" lon="-6.1587460">
    <ele>14.8</ele>
    <time>2025-11-06T16:47:18Z</time>
   </trkpt>
   <trkpt lat="53.4476010" lon="-6.1587270">
    <ele>14.9</ele>
    <time>2025-11-06T16:47:24Z</time>
   </trkpt>
   <trkpt lat="53.4475520" lon="-6.1587250">
    <ele>15.0</ele>
    <time>2025-11-06T16:47:29Z</time>
   </trkpt>
   <trkpt lat="53.4474920" lon="-6.1587370">
    <ele>15.3</ele>
    <time>2025-11-06T16:47:34Z</time>
   </trkpt>
   <trkpt lat="53.4474190" lon="-6.1587660">
    <ele>15.4</ele>
    <time>2025-11-06T16:47:39Z</time>
   </trkpt>
   <trkpt lat="53.4473470" lon="-6.1587840">
    <ele>15.5</ele>
    <time>2025-11-06T16:47:44Z</time>
   </trkpt>
   <trkpt lat="53.4472780" lon="-6.1588020">
    <ele>15.5</ele>
    <time>2025-11-06T16:47:49Z</time>
   </trkpt>
   <trkpt lat="53.4472100" lon="-6.1587900">
    <ele>15.7</ele>
    <time>2025-11-06T16:47:54Z</time>
   </trkpt>
   <trkpt lat="53.4471480" lon="-6.1588000">
    <ele>15.9</ele>
    <time>2025-11-06T16:48:00Z</time>
   </trkpt>
   <trkpt lat="53.4470780" lon="-6.1588110">
    <ele>16.2</ele>
    <time>2025-11-06T16:48:05Z</time>
   </trkpt>
   <trkpt lat="53.4470300" lon="-6.1588250">
    <ele>16.2</ele>
    <time>2025-11-06T16:48:10Z</time>
   </trkpt>
   <trkpt lat="53.4469540" lon="-6.1588470">
    <ele>16.1</ele>
    <time>2025-11-06T16:48:16Z</time>
   </trkpt>
   <trkpt lat="53.4468920" lon="-6.1588830">
    <ele>16.5</ele>
    <time>2025-11-06T16:48:21Z</time>
   </trkpt>
   <trkpt lat="53.4468390" lon="-6.1589240">
    <ele>16.8</ele>
    <time>2025-11-06T16:48:26Z</time>
   </trkpt>
   <trkpt lat="53.4467810" lon="-6.1589700">
    <ele>17.0</ele>
    <time>2025-11-06T16:48:31Z</time>
   </trkpt>
   <trkpt lat="53.4467060" lon="-6.1589930">
    <ele>17.4</ele>
    <time>2025-11-06T16:48:37Z</time>
   </trkpt>
   <trkpt lat="53.4466400" lon="-6.1590000">
    <ele>17.6</ele>
    <time>2025-11-06T16:48:42Z</time>
   </trkpt>
   <trkpt lat="53.4465750" lon="-6.1590080">
    <ele>18.0</ele>
    <time>2025-11-06T16:48:47Z</time>
   </trkpt>
   <trkpt lat="53.4465150" lon="-6.1590440">
    <ele>18.3</ele>
    <time>2025-11-06T16:48:52Z</time>
   </trkpt>
   <trkpt lat="53.4464520" lon="-6.1590750">
    <ele>18.4</ele>
    <time>2025-11-06T16:48:57Z</time>
   </trkpt>
   <trkpt lat="53.4463740" lon="-6.1590830">
    <ele>18.4</ele>
    <time>2025-11-06T16:49:02Z</time>
   </trkpt>
   <trkpt lat="53.4463070" lon="-6.1591000">
    <ele>18.5</ele>
    <time>2025-11-06T16:49:08Z</time>
   </trkpt>
   <trkpt lat="53.4462360" lon="-6.1591360">
    <ele>18.7</ele>
    <time>2025-11-06T16:49:13Z</time>
   </trkpt>
   <trkpt lat="53.4461710" lon="-6.1591910">
    <ele>19.0</ele>
    <time>2025-11-06T16:49:18Z</time>
   </trkpt>
   <trkpt lat="53.4461130" lon="-6.1592500">
    <ele>19.1</ele>
    <time>2025-11-06T16:49:23Z</time>
   </trkpt>
   <trkpt lat="53.4460590" lon="-6.1593180">
    <ele>18.9</ele>
    <time>2025-11-06T16:49:28Z</time>
   </trkpt>
   <trkpt lat="53.4460060" lon="-6.1593980">
    <ele>19.0</ele>
    <time>2025-11-06T16:49:33Z</time>
   </trkpt>
   <trkpt lat="53.4459600" lon="-6.1594990">
    <ele>19.4</ele>
    <time>2025-11-06T16:49:39Z</time>
   </trkpt>
   <trkpt lat="53.4459330" lon="-6.1596090">
    <ele>19.6</ele>
    <time>2025-11-06T16:49:44Z</time>
   </trkpt>
   <trkpt lat="53.4459150" lon="-6.1597290">
    <ele>19.5</ele>
    <time>2025-11-06T16:49:49Z</time>
   </trkpt>
   <trkpt lat="53.4458950" lon="-6.1598390">
    <ele>19.5</ele>
    <time>2025-11-06T16:49:54Z</time>
   </trkpt>
   <trkpt lat="53.4458810" lon="-6.1599430">
    <ele>19.4</ele>
    <time>2025-11-06T16:49:59Z</time>
   </trkpt>
   <trkpt lat="53.4458630" lon="-6.1600580">
    <ele>19.3</ele>
    <time>2025-11-06T16:50:04Z</time>
   </trkpt>
   <trkpt lat="53.4458560" lon="-6.1601720">
    <ele>19.2</ele>
    <time>2025-11-06T16:50:09Z</time>
   </trkpt>
   <trkpt lat="53.4458500" lon="-6.1602870">
    <ele>19.3</ele>
    <time>2025-11-06T16:50:14Z</time>
   </trkpt>
   <trkpt lat="53.4458470" lon="-6.1604040">
    <ele>19.4</ele>
    <time>2025-11-06T16:50:19Z</time>
   </trkpt>
   <trkpt lat="53.4458270" lon="-6.1605380">
    <ele>19.5</ele>
    <time>2025-11-06T16:50:25Z</time>
   </trkpt>
   <trkpt lat="53.4458190" lon="-6.1606390">
    <ele>19.5</ele>
    <time>2025-11-06T16:50:30Z</time>
   </trkpt>
   <trkpt lat="53.4458150" lon="-6.1607540">
    <ele>19.5</ele>
    <time>2025-11-06T16:50:35Z</time>
   </trkpt>
   <trkpt lat="53.4458090" lon="-6.1608610">
    <ele>19.7</ele>
    <time>2025-11-06T16:50:40Z</time>
   </trkpt>
   <trkpt lat="53.4458040" lon="-6.1609620">
    <ele>19.8</ele>
    <time>2025-11-06T16:50:45Z</time>
   </trkpt>
   <trkpt lat="53.4458000" lon="-6.1610760">
    <ele>19.7</ele>
    <time>2025-11-06T16:50:50Z</time>
   </trkpt>
   <trkpt lat="53.4457910" lon="-6.1611990">
    <ele>19.7</ele>
    <time>2025-11-06T16:50:56Z</time>
   </trkpt>
   <trkpt lat="53.4457820" lon="-6.1613160">
    <ele>19.8</ele>
    <time>2025-11-06T16:51:01Z</time>
   </trkpt>
   <trkpt lat="53.4457640" lon="-6.1614370">
    <ele>19.9</ele>
    <time>2025-11-06T16:51:07Z</time>
   </trkpt>
   <trkpt lat="53.4457470" lon="-6.1615330">
    <ele>20.1</ele>
    <time>2025-11-06T16:51:12Z</time>
   </trkpt>
   <trkpt lat="53.4457300" lon="-6.1616490">
    <ele>20.1</ele>
    <time>2025-11-06T16:51:17Z</time>
   </trkpt>
   <trkpt lat="53.4457220" lon="-6.1617670">
    <ele>20.2</ele>
    <time>2025-11-06T16:51:22Z</time>
   </trkpt>
   <trkpt lat="53.4457000" lon="-6.1618910">
    <ele>20.1</ele>
    <time>2025-11-06T16:51:27Z</time>
   </trkpt>
   <trkpt lat="53.4456620" lon="-6.1620040">
    <ele>20.1</ele>
    <time>2025-11-06T16:51:33Z</time>
   </trkpt>
   <trkpt lat="53.4456110" lon="-6.1620870">
    <ele>20.0</ele>
    <time>2025-11-06T16:51:38Z</time>
   </trkpt>
   <trkpt lat="53.4455670" lon="-6.1621730">
    <ele>19.8</ele>
    <time>2025-11-06T16:51:44Z</time>
   </trkpt>
   <trkpt lat="53.4455160" lon="-6.1622600">
    <ele>19.7</ele>
    <time>2025-11-06T16:51:49Z</time>
   </trkpt>
   <trkpt lat="53.4454640" lon="-6.1623330">
    <ele>19.6</ele>
    <time>2025-11-06T16:51:55Z</time>
   </trkpt>
   <trkpt lat="53.4454270" lon="-6.1624170">
    <ele>19.7</ele>
    <time>2025-11-06T16:52:00Z</time>
   </trkpt>
   <trkpt lat="53.4453800" lon="-6.1625280">
    <ele>19.5</ele>
    <time>2025-11-06T16:52:06Z</time>
   </trkpt>
   <trkpt lat="53.4453440" lon="-6.1626250">
    <ele>19.4</ele>
    <time>2025-11-06T16:52:11Z</time>
   </trkpt>
   <trkpt lat="53.4453190" lon="-6.1627420">
    <ele>19.3</ele>
    <time>2025-11-06T16:52:17Z</time>
   </trkpt>
   <trkpt lat="53.4452830" lon="-6.1628640">
    <ele>19.1</ele>
    <time>2025-11-06T16:52:22Z</time>
   </trkpt>
   <trkpt lat="53.4452640" lon="-6.1629810">
    <ele>19.0</ele>
    <time>2025-11-06T16:52:27Z</time>
   </trkpt>
   <trkpt lat="53.4452150" lon="-6.1630850">
    <ele>18.9</ele>
    <time>2025-11-06T16:52:33Z</time>
   </trkpt>
   <trkpt lat="53.4451350" lon="-6.1631330">
    <ele>18.7</ele>
    <time>2025-11-06T16:52:38Z</time>
   </trkpt>
   <trkpt lat="53.4450670" lon="-6.1631290">
    <ele>18.7</ele>
    <time>2025-11-06T16:52:43Z</time>
   </trkpt>
   <trkpt lat="53.4450030" lon="-6.1631410">
    <ele>18.7</ele>
    <time>2025-11-06T16:52:49Z</time>
   </trkpt>
   <trkpt lat="53.4449370" lon="-6.1631540">
    <ele>18.5</ele>
    <time>2025-11-06T16:52:54Z</time>
   </trkpt>
   <trkpt lat="53.4448730" lon="-6.1631550">
    <ele>18.4</ele>
    <time>2025-11-06T16:52:59Z</time>
   </trkpt>
   <trkpt lat="53.4448170" lon="-6.1631470">
    <ele>18.5</ele>
    <time>2025-11-06T16:53:05Z</time>
   </trkpt>
   <trkpt lat="53.4447500" lon="-6.1631380">
    <ele>18.5</ele>
    <time>2025-11-06T16:53:10Z</time>
   </trkpt>
   <trkpt lat="53.4446730" lon="-6.1631140">
    <ele>18.7</ele>
    <time>2025-11-06T16:53:15Z</time>
   </trkpt>
   <trkpt lat="53.4446130" lon="-6.1630770">
    <ele>18.7</ele>
    <time>2025-11-06T16:53:21Z</time>
   </trkpt>
   <trkpt lat="53.4445420" lon="-6.1630590">
    <ele>18.6</ele>
    <time>2025-11-06T16:53:26Z</time>
   </trkpt>
   <trkpt lat="53.4444710" lon="-6.1630740">
    <ele>18.5</ele>
    <time>2025-11-06T16:53:31Z</time>
   </trkpt>
   <trkpt lat="53.4444120" lon="-6.1630970">
    <ele>18.3</ele>
    <time>2025-11-06T16:53:36Z</time>
   </trkpt>
   <trkpt lat="53.4443500" lon="-6.1631390">
    <ele>18.1</ele>
    <time>2025-11-06T16:53:41Z</time>
   </trkpt>
   <trkpt lat="53.4442870" lon="-6.1631690">
    <ele>18.0</ele>
    <time>2025-11-06T16:53:46Z</time>
   </trkpt>
   <trkpt lat="53.4442150" lon="-6.1632080">
    <ele>18.0</ele>
    <time>2025-11-06T16:53:52Z</time>
   </trkpt>
   <trkpt lat="53.4441270" lon="-6.1632240">
    <ele>17.8</ele>
    <time>2025-11-06T16:53:57Z</time>
   </trkpt>
   <trkpt lat="53.4440550" lon="-6.1632510">
    <ele>17.6</ele>
    <time>2025-11-06T16:54:03Z</time>
   </trkpt>
   <trkpt lat="53.4440000" lon="-6.1632480">
    <ele>17.5</ele>
    <time>2025-11-06T16:54:08Z</time>
   </trkpt>
   <trkpt lat="53.4439900" lon="-6.1631610">
    <ele>17.2</ele>
    <time>2025-11-06T16:54:14Z</time>
   </trkpt>
   <trkpt lat="53.4439510" lon="-6.1630780">
    <ele>17.0</ele>
    <time>2025-11-06T16:54:19Z</time>
   </trkpt>
   <trkpt lat="53.4439010" lon="-6.1630570">
    <ele>17.0</ele>
    <time>2025-11-06T16:54:24Z</time>
   </trkpt>
   <trkpt lat="53.4438290" lon="-6.1630830">
    <ele>16.8</ele>
    <time>2025-11-06T16:54:29Z</time>
   </trkpt>
   <trkpt lat="53.4437530" lon="-6.1630940">
    <ele>16.7</ele>
    <time>2025-11-06T16:54:34Z</time>
   </trkpt>
   <trkpt lat="53.4436840" lon="-6.1631010">
    <ele>16.6</ele>
    <time>2025-11-06T16:54:39Z</time>
   </trkpt>
   <trkpt lat="53.4436100" lon="-6.1630950">
    <ele>16.4</ele>
    <time>2025-11-06T16:54:44Z</time>
   </trkpt>
   <trkpt lat="53.4435480" lon="-6.1630790">
    <ele>16.5</ele>
    <time>2025-11-06T16:54:49Z</time>
   </trkpt>
   <trkpt lat="53.4434780" lon="-6.1630430">
    <ele>16.6</ele>
    <time>2025-11-06T16:54:54Z</time>
   </trkpt>
   <trkpt lat="53.4434200" lon="-6.1630340">
    <ele>16.7</ele>
    <time>2025-11-06T16:55:00Z</time>
   </trkpt>
   <trkpt lat="53.4433570" lon="-6.1630570">
    <ele>16.8</ele>
    <time>2025-11-06T16:55:05Z</time>
   </trkpt>
   <trkpt lat="53.4433090" lon="-6.1630970">
    <ele>16.9</ele>
    <time>2025-11-06T16:55:10Z</time>
   </trkpt>
   <trkpt lat="53.4432660" lon="-6.1630620">
    <ele>17.1</ele>
    <time>2025-11-06T16:55:17Z</time>
   </trkpt>
   <trkpt lat="53.4432720" lon="-6.1629490">
    <ele>17.9</ele>
    <time>2025-11-06T16:55:22Z</time>
   </trkpt>
   <trkpt lat="53.4432750" lon="-6.1628190">
    <ele>18.3</ele>
    <time>2025-11-06T16:55:27Z</time>
   </trkpt>
   <trkpt lat="53.4432720" lon="-6.1627040">
    <ele>18.4</ele>
    <time>2025-11-06T16:55:32Z</time>
   </trkpt>
   <trkpt lat="53.4432670" lon="-6.1626020">
    <ele>18.6</ele>
    <time>2025-11-06T16:55:37Z</time>
   </trkpt>
   <trkpt lat="53.4432650" lon="-6.1625170">
    <ele>18.8</ele>
    <time>2025-11-06T16:55:43Z</time>
   </trkpt>
   <trkpt lat="53.4432580" lon="-6.1624080">
    <ele>19.0</ele>
    <time>2025-11-06T16:55:48Z</time>
   </trkpt>
   <trkpt lat="53.4432550" lon="-6.1623040">
    <ele>19.1</ele>
    <time>2025-11-06T16:55:53Z</time>
   </trkpt>
   <trkpt lat="53.4432540" lon="-6.1622070">
    <ele>19.2</ele>
    <time>2025-11-06T16:55:58Z</time>
   </trkpt>
   <trkpt lat="53.4432440" lon="-6.1620940">
    <ele>19.5</ele>
    <time>2025-11-06T16:56:04Z</time>
   </trkpt>
   <trkpt lat="53.4432420" lon="-6.1619970">
    <ele>19.7</ele>
    <time>2025-11-06T16:56:09Z</time>
   </trkpt>
   <trkpt lat="53.4432360" lon="-6.1618980">
    <ele>19.8</ele>
    <time>2025-11-06T16:56:14Z</time>
   </trkpt>
   <trkpt lat="53.4432280" lon="-6.1618160">
    <ele>20.0</ele>
    <time>2025-11-06T16:56:19Z</time>
   </trkpt>
   <trkpt lat="53.4432300" lon="-6.1617350">
    <ele>20.2</ele>
    <time>2025-11-06T16:56:32Z</time>
   </trkpt>
   <trkpt lat="53.4432460" lon="-6.1616120">
    <ele>20.1</ele>
    <time>2025-11-06T16:56:37Z</time>
   </trkpt>
   <trkpt lat="53.4432340" lon="-6.1614750">
    <ele>20.3</ele>
    <time>2025-11-06T16:56:43Z</time>
   </trkpt>
   <trkpt lat="53.4432280" lon="-6.1613770">
    <ele>20.4</ele>
    <time>2025-11-06T16:56:48Z</time>
   </trkpt>
   <trkpt lat="53.4432180" lon="-6.1612810">
    <ele>20.5</ele>
    <time>2025-11-06T16:56:53Z</time>
   </trkpt>
   <trkpt lat="53.4432060" lon="-6.1611760">
    <ele>20.7</ele>
    <time>2025-11-06T16:56:59Z</time>
   </trkpt>
   <trkpt lat="53.4432030" lon="-6.1610720">
    <ele>20.8</ele>
    <time>2025-11-06T16:57:04Z</time>
   </trkpt>
   <trkpt lat="53.4432000" lon="-6.1609510">
    <ele>21.2</ele>
    <time>2025-11-06T16:57:09Z</time>
   </trkpt>
   <trkpt lat="53.4432010" lon="-6.1608580">
    <ele>21.4</ele>
    <time>2025-11-06T16:57:14Z</time>
   </trkpt>
   <trkpt lat="53.4431920" lon="-6.1607460">
    <ele>21.4</ele>
    <time>2025-11-06T16:57:19Z</time>
   </trkpt>
   <trkpt lat="53.4431810" lon="-6.1606340">
    <ele>21.5</ele>
    <time>2025-11-06T16:57:25Z</time>
   </trkpt>
   <trkpt lat="53.4431850" lon="-6.1605520">
    <ele>21.6</ele>
    <time>2025-11-06T16:57:30Z</time>
   </trkpt>
   <trkpt lat="53.4431830" lon="-6.1604400">
    <ele>21.6</ele>
    <time>2025-11-06T16:57:35Z</time>
   </trkpt>
   <trkpt lat="53.4431750" lon="-6.1603310">
    <ele>21.8</ele>
    <time>2025-11-06T16:57:40Z</time>
   </trkpt>
   <trkpt lat="53.4431720" lon="-6.1602450">
    <ele>22.0</ele>
    <time>2025-11-06T16:57:46Z</time>
   </trkpt>
   <trkpt lat="53.4431540" lon="-6.1601390">
    <ele>22.3</ele>
    <time>2025-11-06T16:57:51Z</time>
   </trkpt>
   <trkpt lat="53.4431630" lon="-6.1600160">
    <ele>22.4</ele>
    <time>2025-11-06T16:57:56Z</time>
   </trkpt>
   <trkpt lat="53.4431650" lon="-6.1599170">
    <ele>22.6</ele>
    <time>2025-11-06T16:58:02Z</time>
   </trkpt>
   <trkpt lat="53.4431860" lon="-6.1598240">
    <ele>22.7</ele>
    <time>2025-11-06T16:58:09Z</time>
   </trkpt>
   <trkpt lat="53.4432380" lon="-6.1597090">
    <ele>22.7</ele>
    <time>2025-11-06T16:58:14Z</time>
   </trkpt>
   <trkpt lat="53.4432600" lon="-6.1596000">
    <ele>23.4</ele>
    <time>2025-11-06T16:58:19Z</time>
   </trkpt>
   <trkpt lat="53.4432980" lon="-6.1595230">
    <ele>23.3</ele>
    <time>2025-11-06T16:58:24Z</time>
   </trkpt>
   <trkpt lat="53.4433280" lon="-6.1594400">
    <ele>23.0</ele>
    <time>2025-11-06T16:58:30Z</time>
   </trkpt>
   <trkpt lat="53.4433430" lon="-6.1593320">
    <ele>22.9</ele>
    <time>2025-11-06T16:58:35Z</time>
   </trkpt>
   <trkpt lat="53.4433380" lon="-6.1592400">
    <ele>22.8</ele>
    <time>2025-11-06T16:58:41Z</time>
   </trkpt>
   <trkpt lat="53.4433060" lon="-6.1591430">
    <ele>22.2</ele>
    <time>2025-11-06T16:58:46Z</time>
   </trkpt>
   <trkpt lat="53.4432760" lon="-6.1590310">
    <ele>21.6</ele>
    <time>2025-11-06T16:58:51Z</time>
   </trkpt>
   <trkpt lat="53.4432620" lon="-6.1589340">
    <ele>21.3</ele>
    <time>2025-11-06T16:58:56Z</time>
   </trkpt>
   <trkpt lat="53.4432550" lon="-6.1588360">
    <ele>21.0</ele>
    <time>2025-11-06T16:59:01Z</time>
   </trkpt>
   <trkpt lat="53.4432540" lon="-6.1587520">
    <ele>21.1</ele>
    <time>2025-11-06T16:59:06Z</time>
   </trkpt>
   <trkpt lat="53.4432440" lon="-6.1586630">
    <ele>21.0</ele>
    <time>2025-11-06T16:59:11Z</time>
   </trkpt>
   <trkpt lat="53.4432450" lon="-6.1585750">
    <ele>21.1</ele>
    <time>2025-11-06T16:59:16Z</time>
   </trkpt>
   <trkpt lat="53.4432440" lon="-6.1584910">
    <ele>21.3</ele>
    <time>2025-11-06T16:59:22Z</time>
   </trkpt>
   <trkpt lat="53.4432390" lon="-6.1584110">
    <ele>21.7</ele>
    <time>2025-11-06T16:59:28Z</time>
   </trkpt>
   <trkpt lat="53.4432340" lon="-6.1583040">
    <ele>21.9</ele>
    <time>2025-11-06T16:59:33Z</time>
   </trkpt>
   <trkpt lat="53.4432250" lon="-6.1581760">
    <ele>22.0</ele>
    <time>2025-11-06T16:59:38Z</time>
   </trkpt>
   <trkpt lat="53.4432000" lon="-6.1580950">
    <ele>22.1</ele>
    <time>2025-11-06T16:59:43Z</time>
   </trkpt>
   <trkpt lat="53.4431520" lon="-6.1580680">
    <ele>22.2</ele>
    <time>2025-11-06T16:59:48Z</time>
   </trkpt>
   <trkpt lat="53.4431000" lon="-6.1580340">
    <ele>22.4</ele>
    <time>2025-11-06T16:59:53Z</time>
   </trkpt>
   <trkpt lat="53.4430340" lon="-6.1580160">
    <ele>22.4</ele>
    <time>2025-11-06T16:59:58Z</time>
   </trkpt>
   <trkpt lat="53.4429620" lon="-6.1580130">
    <ele>22.4</ele>
    <time>2025-11-06T17:00:04Z</time>
   </trkpt>
   <trkpt lat="53.4429000" lon="-6.1580060">
    <ele>22.3</ele>
    <time>2025-11-06T17:00:09Z</time>
   </trkpt>
   <trkpt lat="53.4428320" lon="-6.1580100">
    <ele>22.1</ele>
    <time>2025-11-06T17:00:15Z</time>
   </trkpt>
   <trkpt lat="53.4427560" lon="-6.1580210">
    <ele>22.3</ele>
    <time>2025-11-06T17:00:20Z</time>
   </trkpt>
   <trkpt lat="53.4426960" lon="-6.1580430">
    <ele>22.4</ele>
    <time>2025-11-06T17:00:25Z</time>
   </trkpt>
   <trkpt lat="53.4426370" lon="-6.1580810">
    <ele>22.6</ele>
    <time>2025-11-06T17:00:30Z</time>
   </trkpt>
   <trkpt lat="53.4425860" lon="-6.1581410">
    <ele>22.6</ele>
    <time>2025-11-06T17:00:36Z</time>
   </trkpt>
   <trkpt lat="53.4425230" lon="-6.1581860">
    <ele>22.3</ele>
    <time>2025-11-06T17:00:41Z</time>
   </trkpt>
   <trkpt lat="53.4424610" lon="-6.1582020">
    <ele>22.0</ele>
    <time>2025-11-06T17:00:46Z</time>
   </trkpt>
   <trkpt lat="53.4424230" lon="-6.1582690">
    <ele>21.9</ele>
    <time>2025-11-06T17:00:51Z</time>
   </trkpt>
   <trkpt lat="53.4423700" lon="-6.1583350">
    <ele>22.2</ele>
    <time>2025-11-06T17:00:57Z</time>
   </trkpt>
   <trkpt lat="53.4423190" lon="-6.1584140">
    <ele>22.4</ele>
    <time>2025-11-06T17:01:02Z</time>
   </trkpt>
   <trkpt lat="53.4422870" lon="-6.1585210">
    <ele>22.5</ele>
    <time>2025-11-06T17:01:08Z</time>
   </trkpt>
   <trkpt lat="53.4422470" lon="-6.1586030">
    <ele>22.4</ele>
    <time>2025-11-06T17:01:13Z</time>
   </trkpt>
   <trkpt lat="53.4422150" lon="-6.1586870">
    <ele>22.5</ele>
    <time>2025-11-06T17:01:18Z</time>
   </trkpt>
   <trkpt lat="53.4421850" lon="-6.1587630">
    <ele>22.5</ele>
    <time>2025-11-06T17:01:24Z</time>
   </trkpt>
   <trkpt lat="53.4421590" lon="-6.1588550">
    <ele>22.6</ele>
    <time>2025-11-06T17:01:29Z</time>
   </trkpt>
   <trkpt lat="53.4421360" lon="-6.1589450">
    <ele>22.6</ele>
    <time>2025-11-06T17:01:34Z</time>
   </trkpt>
   <trkpt lat="53.4421050" lon="-6.1590360">
    <ele>22.5</ele>
    <time>2025-11-06T17:01:40Z</time>
   </trkpt>
   <trkpt lat="53.4420580" lon="-6.1591070">
    <ele>22.5</ele>
    <time>2025-11-06T17:01:45Z</time>
   </trkpt>
   <trkpt lat="53.4420050" lon="-6.1592050">
    <ele>22.6</ele>
    <time>2025-11-06T17:01:50Z</time>
   </trkpt>
   <trkpt lat="53.4419710" lon="-6.1592970">
    <ele>22.6</ele>
    <time>2025-11-06T17:01:56Z</time>
   </trkpt>
   <trkpt lat="53.4419460" lon="-6.1593970">
    <ele>22.6</ele>
    <time>2025-11-06T17:02:01Z</time>
   </trkpt>
   <trkpt lat="53.4419090" lon="-6.1594890">
    <ele>22.4</ele>
    <time>2025-11-06T17:02:07Z</time>
   </trkpt>
   <trkpt lat="53.4418630" lon="-6.1595830">
    <ele>22.4</ele>
    <time>2025-11-06T17:02:12Z</time>
   </trkpt>
   <trkpt lat="53.4418320" lon="-6.1596590">
    <ele>22.5</ele>
    <time>2025-11-06T17:02:17Z</time>
   </trkpt>
   <trkpt lat="53.4417990" lon="-6.1597380">
    <ele>22.6</ele>
    <time>2025-11-06T17:02:23Z</time>
   </trkpt>
   <trkpt lat="53.4417600" lon="-6.1598090">
    <ele>22.6</ele>
    <time>2025-11-06T17:02:28Z</time>
   </trkpt>
   <trkpt lat="53.4417130" lon="-6.1598910">
    <ele>22.6</ele>
    <time>2025-11-06T17:02:34Z</time>
   </trkpt>
   <trkpt lat="53.4416730" lon="-6.1599740">
    <ele>22.6</ele>
    <time>2025-11-06T17:02:39Z</time>
   </trkpt>
   <trkpt lat="53.4416290" lon="-6.1600510">
    <ele>22.6</ele>
    <time>2025-11-06T17:02:44Z</time>
   </trkpt>
   <trkpt lat="53.4415880" lon="-6.1601460">
    <ele>22.5</ele>
    <time>2025-11-06T17:02:50Z</time>
   </trkpt>
   <trkpt lat="53.4415570" lon="-6.1602290">
    <ele>22.6</ele>
    <time>2025-11-06T17:02:55Z</time>
   </trkpt>
   <trkpt lat="53.4415190" lon="-6.1603150">
    <ele>22.6</ele>
    <time>2025-11-06T17:03:01Z</time>
   </trkpt>
   <trkpt lat="53.4414770" lon="-6.1603840">
    <ele>22.4</ele>
    <time>2025-11-06T17:03:06Z</time>
   </trkpt>
   <trkpt lat="53.4414350" lon="-6.1604640">
    <ele>22.0</ele>
    <time>2025-11-06T17:03:11Z</time>
   </trkpt>
   <trkpt lat="53.4414040" lon="-6.1605600">
    <ele>22.0</ele>
    <time>2025-11-06T17:03:17Z</time>
   </trkpt>
   <trkpt lat="53.4413770" lon="-6.1606570">
    <ele>22.0</ele>
    <time>2025-11-06T17:03:22Z</time>
   </trkpt>
   <trkpt lat="53.4413510" lon="-6.1607590">
    <ele>21.9</ele>
    <time>2025-11-06T17:03:27Z</time>
   </trkpt>
   <trkpt lat="53.4413140" lon="-6.1608610">
    <ele>21.5</ele>
    <time>2025-11-06T17:03:33Z</time>
   </trkpt>
   <trkpt lat="53.4412810" lon="-6.1609450">
    <ele>21.3</ele>
    <time>2025-11-06T17:03:38Z</time>
   </trkpt>
   <trkpt lat="53.4412440" lon="-6.1610210">
    <ele>21.1</ele>
    <time>2025-11-06T17:03:44Z</time>
   </trkpt>
   <trkpt lat="53.4412180" lon="-6.1611020">
    <ele>21.3</ele>
    <time>2025-11-06T17:03:49Z</time>
   </trkpt>
   <trkpt lat="53.4411980" lon="-6.1612210">
    <ele>21.2</ele>
    <time>2025-11-06T17:03:55Z</time>
   </trkpt>
   <trkpt lat="53.4411710" lon="-6.1613190">
    <ele>20.6</ele>
    <time>2025-11-06T17:04:00Z</time>
   </trkpt>
   <trkpt lat="53.4411410" lon="-6.1614120">
    <ele>20.4</ele>
    <time>2025-11-06T17:04:05Z</time>
   </trkpt>
   <trkpt lat="53.4411010" lon="-6.1614870">
    <ele>20.2</ele>
    <time>2025-11-06T17:04:10Z</time>
   </trkpt>
   <trkpt lat="53.4410510" lon="-6.1615540">
    <ele>20.0</ele>
    <time>2025-11-06T17:04:15Z</time>
   </trkpt>
   <trkpt lat="53.4409990" lon="-6.1616100">
    <ele>19.9</ele>
    <time>2025-11-06T17:04:21Z</time>
   </trkpt>
   <trkpt lat="53.4409510" lon="-6.1616690">
    <ele>19.7</ele>
    <time>2025-11-06T17:04:26Z</time>
   </trkpt>
   <trkpt lat="53.4409030" lon="-6.1617380">
    <ele>19.6</ele>
    <time>2025-11-06T17:04:31Z</time>
   </trkpt>
   <trkpt lat="53.4408650" lon="-6.1618230">
    <ele>19.4</ele>
    <time>2025-11-06T17:04:36Z</time>
   </trkpt>
   <trkpt lat="53.4408260" lon="-6.1619100">
    <ele>19.5</ele>
    <time>2025-11-06T17:04:41Z</time>
   </trkpt>
   <trkpt lat="53.4408050" lon="-6.1619910">
    <ele>19.6</ele>
    <time>2025-11-06T17:04:47Z</time>
   </trkpt>
   <trkpt lat="53.4407740" lon="-6.1620640">
    <ele>19.7</ele>
    <time>2025-11-06T17:04:52Z</time>
   </trkpt>
   <trkpt lat="53.4407440" lon="-6.1621510">
    <ele>19.7</ele>
    <time>2025-11-06T17:04:57Z</time>
   </trkpt>
   <trkpt lat="53.4407080" lon="-6.1622560">
    <ele>19.6</ele>
    <time>2025-11-06T17:05:02Z</time>
   </trkpt>
   <trkpt lat="53.4406790" lon="-6.1623680">
    <ele>19.3</ele>
    <time>2025-11-06T17:05:08Z</time>
   </trkpt>
   <trkpt lat="53.4406520" lon="-6.1624400">
    <ele>19.3</ele>
    <time>2025-11-06T17:05:13Z</time>
   </trkpt>
   <trkpt lat="53.4406150" lon="-6.1625350">
    <ele>19.3</ele>
    <time>2025-11-06T17:05:18Z</time>
   </trkpt>
   <trkpt lat="53.4405820" lon="-6.1626440">
    <ele>19.2</ele>
    <time>2025-11-06T17:05:23Z</time>
   </trkpt>
   <trkpt lat="53.4405450" lon="-6.1627300">
    <ele>19.2</ele>
    <time>2025-11-06T17:05:29Z</time>
   </trkpt>
   <trkpt lat="53.4405250" lon="-6.1628340">
    <ele>19.0</ele>
    <time>2025-11-06T17:05:34Z</time>
   </trkpt>
   <trkpt lat="53.4405050" lon="-6.1629440">
    <ele>18.9</ele>
    <time>2025-11-06T17:05:40Z</time>
   </trkpt>
   <trkpt lat="53.4404810" lon="-6.1630450">
    <ele>18.9</ele>
    <time>2025-11-06T17:05:45Z</time>
   </trkpt>
   <trkpt lat="53.4404430" lon="-6.1631390">
    <ele>19.0</ele>
    <time>2025-11-06T17:05:50Z</time>
   </trkpt>
   <trkpt lat="53.4404040" lon="-6.1632350">
    <ele>18.9</ele>
    <time>2025-11-06T17:05:56Z</time>
   </trkpt>
   <trkpt lat="53.4403770" lon="-6.1633340">
    <ele>18.7</ele>
    <time>2025-11-06T17:06:01Z</time>
   </trkpt>
   <trkpt lat="53.4403640" lon="-6.1634340">
    <ele>18.7</ele>
    <time>2025-11-06T17:06:06Z</time>
   </trkpt>
   <trkpt lat="53.4403360" lon="-6.1635290">
    <ele>18.7</ele>
    <time>2025-11-06T17:06:11Z</time>
   </trkpt>
   <trkpt lat="53.4403030" lon="-6.1636310">
    <ele>18.5</ele>
    <time>2025-11-06T17:06:16Z</time>
   </trkpt>
   <trkpt lat="53.4402700" lon="-6.1637450">
    <ele>18.6</ele>
    <time>2025-11-06T17:06:22Z</time>
   </trkpt>
   <trkpt lat="53.4402560" lon="-6.1638300">
    <ele>18.5</ele>
    <time>2025-11-06T17:06:27Z</time>
   </trkpt>
   <trkpt lat="53.4402390" lon="-6.1639210">
    <ele>18.5</ele>
    <time>2025-11-06T17:06:32Z</time>
   </trkpt>
   <trkpt lat="53.4402470" lon="-6.1640210">
    <ele>18.4</ele>
    <time>2025-11-06T17:06:37Z</time>
   </trkpt>
   <trkpt lat="53.4402810" lon="-6.1641140">
    <ele>18.4</ele>
    <time>2025-11-06T17:06:43Z</time>
   </trkpt>
   <trkpt lat="53.4403060" lon="-6.1642090">
    <ele>18.3</ele>
    <time>2025-11-06T17:06:48Z</time>
   </trkpt>
   <trkpt lat="53.4403300" lon="-6.1643100">
    <ele>18.1</ele>
    <time>2025-11-06T17:06:53Z</time>
   </trkpt>
   <trkpt lat="53.4403380" lon="-6.1644360">
    <ele>18.3</ele>
    <time>2025-11-06T17:06:58Z</time>
   </trkpt>
   <trkpt lat="53.4403480" lon="-6.1645490">
    <ele>18.3</ele>
    <time>2025-11-06T17:07:04Z</time>
   </trkpt>
   <trkpt lat="53.4403570" lon="-6.1646650">
    <ele>18.2</ele>
    <time>2025-11-06T17:07:09Z</time>
   </trkpt>
   <trkpt lat="53.4403620" lon="-6.1647690">
    <ele>17.8</ele>
    <time>2025-11-06T17:07:14Z</time>
   </trkpt>
   <trkpt lat="53.4403560" lon="-6.1648590">
    <ele>17.3</ele>
    <time>2025-11-06T17:07:20Z</time>
   </trkpt>
   <trkpt lat="53.4403290" lon="-6.1649410">
    <ele>17.4</ele>
    <time>2025-11-06T17:07:25Z</time>
   </trkpt>
   <trkpt lat="53.4402640" lon="-6.1649480">
    <ele>17.5</ele>
    <time>2025-11-06T17:07:30Z</time>
   </trkpt>
   <trkpt lat="53.4402190" lon="-6.1650140">
    <ele>17.2</ele>
    <time>2025-11-06T17:07:35Z</time>
   </trkpt>
   <trkpt lat="53.4401810" lon="-6.1651280">
    <ele>17.2</ele>
    <time>2025-11-06T17:07:41Z</time>
   </trkpt>
   <trkpt lat="53.4401440" lon="-6.1652040">
    <ele>17.4</ele>
    <time>2025-11-06T17:07:46Z</time>
   </trkpt>
   <trkpt lat="53.4401030" lon="-6.1652840">
    <ele>16.8</ele>
    <time>2025-11-06T17:07:51Z</time>
   </trkpt>
   <trkpt lat="53.4400540" lon="-6.1653640">
    <ele>17.5</ele>
    <time>2025-11-06T17:07:56Z</time>
   </trkpt>
   <trkpt lat="53.4400350" lon="-6.1654880">
    <ele>17.5</ele>
    <time>2025-11-06T17:08:02Z</time>
   </trkpt>
   <trkpt lat="53.4400130" lon="-6.1655870">
    <ele>17.0</ele>
    <time>2025-11-06T17:08:07Z</time>
   </trkpt>
   <trkpt lat="53.4399800" lon="-6.1656880">
    <ele>16.5</ele>
    <time>2025-11-06T17:08:12Z</time>
   </trkpt>
   <trkpt lat="53.4399410" lon="-6.1657650">
    <ele>15.9</ele>
    <time>2025-11-06T17:08:17Z</time>
   </trkpt>
   <trkpt lat="53.4399030" lon="-6.1658390">
    <ele>16.1</ele>
    <time>2025-11-06T17:08:23Z</time>
   </trkpt>
   <trkpt lat="53.4398640" lon="-6.1658970">
    <ele>16.3</ele>
    <time>2025-11-06T17:08:28Z</time>
   </trkpt>
   <trkpt lat="53.4398360" lon="-6.1659820">
    <ele>16.2</ele>
    <time>2025-11-06T17:08:33Z</time>
   </trkpt>
   <trkpt lat="53.4398140" lon="-6.1660720">
    <ele>16.1</ele>
    <time>2025-11-06T17:08:38Z</time>
   </trkpt>
   <trkpt lat="53.4397670" lon="-6.1661870">
    <ele>16.1</ele>
    <time>2025-11-06T17:08:43Z</time>
   </trkpt>
   <trkpt lat="53.4397300" lon="-6.1662930">
    <ele>15.9</ele>
    <time>2025-11-06T17:08:49Z</time>
   </trkpt>
   <trkpt lat="53.4397080" lon="-6.1663910">
    <ele>16.2</ele>
    <time>2025-11-06T17:08:54Z</time>
   </trkpt>
   <trkpt lat="53.4396820" lon="-6.1664830">
    <ele>16.6</ele>
    <time>2025-11-06T17:08:59Z</time>
   </trkpt>
   <trkpt lat="53.4396260" lon="-6.1665220">
    <ele>16.6</ele>
    <time>2025-11-06T17:09:05Z</time>
   </trkpt>
   <trkpt lat="53.4395880" lon="-6.1665780">
    <ele>15.9</ele>
    <time>2025-11-06T17:09:10Z</time>
   </trkpt>
   <trkpt lat="53.4395490" lon="-6.1666670">
    <ele>15.4</ele>
    <time>2025-11-06T17:09:15Z</time>
   </trkpt>
   <trkpt lat="53.4395350" lon="-6.1667650">
    <ele>14.9</ele>
    <time>2025-11-06T17:09:21Z</time>
   </trkpt>
   <trkpt lat="53.4395160" lon="-6.1668450">
    <ele>14.9</ele>
    <time>2025-11-06T17:09:26Z</time>
   </trkpt>
   <trkpt lat="53.4395140" lon="-6.1669280">
    <ele>15.3</ele>
    <time>2025-11-06T17:09:31Z</time>
   </trkpt>
   <trkpt lat="53.4395180" lon="-6.1670060">
    <ele>14.9</ele>
    <time>2025-11-06T17:09:38Z</time>
   </trkpt>
   <trkpt lat="53.4395020" lon="-6.1671210">
    <ele>14.8</ele>
    <time>2025-11-06T17:09:43Z</time>
   </trkpt>
   <trkpt lat="53.4394720" lon="-6.1672440">
    <ele>14.7</ele>
    <time>2025-11-06T17:09:49Z</time>
   </trkpt>
   <trkpt lat="53.4394450" lon="-6.1673680">
    <ele>14.6</ele>
    <time>2025-11-06T17:09:54Z</time>
   </trkpt>
   <trkpt lat="53.4394150" lon="-6.1674790">
    <ele>14.9</ele>
    <time>2025-11-06T17:09:59Z</time>
   </trkpt>
   <trkpt lat="53.4393970" lon="-6.1675560">
    <ele>14.8</ele>
    <time>2025-11-06T17:10:04Z</time>
   </trkpt>
   <trkpt lat="53.4393850" lon="-6.1676330">
    <ele>14.8</ele>
    <time>2025-11-06T17:10:10Z</time>
   </trkpt>
   <trkpt lat="53.4393600" lon="-6.1677270">
    <ele>14.7</ele>
    <time>2025-11-06T17:10:15Z</time>
   </trkpt>
   <trkpt lat="53.4393320" lon="-6.1678730">
    <ele>14.6</ele>
    <time>2025-11-06T17:10:20Z</time>
   </trkpt>
   <trkpt lat="53.4393190" lon="-6.1680180">
    <ele>14.6</ele>
    <time>2025-11-06T17:10:25Z</time>
   </trkpt>
   <trkpt lat="53.4393260" lon="-6.1681390">
    <ele>14.5</ele>
    <time>2025-11-06T17:10:31Z</time>
   </trkpt>
   <trkpt lat="53.4393020" lon="-6.1682090">
    <ele>13.5</ele>
    <time>2025-11-06T17:10:36Z</time>
   </trkpt>
   <trkpt lat="53.4392910" lon="-6.1682910">
    <ele>11.7</ele>
    <time>2025-11-06T17:10:46Z</time>
   </trkpt>
   <trkpt lat="53.4392560" lon="-6.1684280">
    <ele>12.0</ele>
    <time>2025-11-06T17:10:51Z</time>
   </trkpt>
   <trkpt lat="53.4392080" lon="-6.1685810">
    <ele>12.1</ele>
    <time>2025-11-06T17:10:56Z</time>
   </trkpt>
   <trkpt lat="53.4391810" lon="-6.1686820">
    <ele>11.0</ele>
    <time>2025-11-06T17:11:02Z</time>
   </trkpt>
   <trkpt lat="53.4391690" lon="-6.1687810">
    <ele>11.5</ele>
    <time>2025-11-06T17:11:07Z</time>
   </trkpt>
   <trkpt lat="53.4391540" lon="-6.1688610">
    <ele>11.8</ele>
    <time>2025-11-06T17:11:13Z</time>
   </trkpt>
   <trkpt lat="53.4391250" lon="-6.1689570">
    <ele>12.0</ele>
    <time>2025-11-06T17:11:18Z</time>
   </trkpt>
   <trkpt lat="53.4391020" lon="-6.1690300">
    <ele>11.9</ele>
    <time>2025-11-06T17:11:24Z</time>
   </trkpt>
   <trkpt lat="53.4390770" lon="-6.1691320">
    <ele>12.1</ele>
    <time>2025-11-06T17:11:29Z</time>
   </trkpt>
   <trkpt lat="53.4390760" lon="-6.1692130">
    <ele>11.9</ele>
    <time>2025-11-06T17:11:34Z</time>
   </trkpt>
   <trkpt lat="53.4390890" lon="-6.1693180">
    <ele>12.1</ele>
    <time>2025-11-06T17:11:39Z</time>
   </trkpt>
   <trkpt lat="53.4390910" lon="-6.1694120">
    <ele>12.3</ele>
    <time>2025-11-06T17:11:45Z</time>
   </trkpt>
   <trkpt lat="53.4390860" lon="-6.1695120">
    <ele>12.2</ele>
    <time>2025-11-06T17:11:50Z</time>
   </trkpt>
   <trkpt lat="53.4390690" lon="-6.1696370">
    <ele>12.2</ele>
    <time>2025-11-06T17:11:56Z</time>
   </trkpt>
   <trkpt lat="53.4390340" lon="-6.1697520">
    <ele>12.3</ele>
    <time>2025-11-06T17:12:01Z</time>
   </trkpt>
   <trkpt lat="53.4390140" lon="-6.1698470">
    <ele>11.7</ele>
    <time>2025-11-06T17:12:06Z</time>
   </trkpt>
   <trkpt lat="53.4389860" lon="-6.1699940">
    <ele>11.6</ele>
    <time>2025-11-06T17:12:11Z</time>
   </trkpt>
   <trkpt lat="53.4389790" lon="-6.1701370">
    <ele>11.4</ele>
    <time>2025-11-06T17:12:17Z</time>
   </trkpt>
   <trkpt lat="53.4389800" lon="-6.1702510">
    <ele>11.4</ele>
    <time>2025-11-06T17:12:22Z</time>
   </trkpt>
   <trkpt lat="53.4389930" lon="-6.1703430">
    <ele>11.2</ele>
    <time>2025-11-06T17:12:28Z</time>
   </trkpt>
   <trkpt lat="53.4389990" lon="-6.1704560">
    <ele>11.1</ele>
    <time>2025-11-06T17:12:33Z</time>
   </trkpt>
   <trkpt lat="53.4390260" lon="-6.1705180">
    <ele>11.3</ele>
    <time>2025-11-06T17:12:51Z</time>
   </trkpt>
   <trkpt lat="53.4390470" lon="-6.1706520">
    <ele>11.3</ele>
    <time>2025-11-06T17:12:56Z</time>
   </trkpt>
   <trkpt lat="53.4390440" lon="-6.1707560">
    <ele>11.6</ele>
    <time>2025-11-06T17:13:02Z</time>
   </trkpt>
   <trkpt lat="53.4390400" lon="-6.1708690">
    <ele>11.4</ele>
    <time>2025-11-06T17:13:07Z</time>
   </trkpt>
   <trkpt lat="53.4390380" lon="-6.1710040">
    <ele>11.4</ele>
    <time>2025-11-06T17:13:12Z</time>
   </trkpt>
   <trkpt lat="53.4390400" lon="-6.1711180">
    <ele>10.7</ele>
    <time>2025-11-06T17:13:17Z</time>
   </trkpt>
   <trkpt lat="53.4390530" lon="-6.1712270">
    <ele>11.0</ele>
    <time>2025-11-06T17:13:23Z</time>
   </trkpt>
   <trkpt lat="53.4390900" lon="-6.1713070">
    <ele>11.2</ele>
    <time>2025-11-06T17:13:28Z</time>
   </trkpt>
   <trkpt lat="53.4391200" lon="-6.1713860">
    <ele>11.7</ele>
    <time>2025-11-06T17:13:34Z</time>
   </trkpt>
   <trkpt lat="53.4391410" lon="-6.1714550">
    <ele>11.6</ele>
    <time>2025-11-06T17:13:39Z</time>
   </trkpt>
   <trkpt lat="53.4391380" lon="-6.1715350">
    <ele>10.8</ele>
    <time>2025-11-06T17:13:48Z</time>
   </trkpt>
   <trkpt lat="53.4391530" lon="-6.1716250">
    <ele>10.9</ele>
    <time>2025-11-06T17:13:54Z</time>
   </trkpt>
   <trkpt lat="53.4391720" lon="-6.1717240">
    <ele>10.9</ele>
    <time>2025-11-06T17:13:59Z</time>
   </trkpt>
   <trkpt lat="53.4391710" lon="-6.1718150">
    <ele>10.4</ele>
    <time>2025-11-06T17:14:04Z</time>
   </trkpt>
   <trkpt lat="53.4391670" lon="-6.1719520">
    <ele>10.9</ele>
    <time>2025-11-06T17:14:10Z</time>
   </trkpt>
   <trkpt lat="53.4391760" lon="-6.1720760">
    <ele>10.4</ele>
    <time>2025-11-06T17:14:15Z</time>
   </trkpt>
   <trkpt lat="53.4391810" lon="-6.1722140">
    <ele>10.0</ele>
    <time>2025-11-06T17:14:20Z</time>
   </trkpt>
   <trkpt lat="53.4391890" lon="-6.1723600">
    <ele>10.7</ele>
    <time>2025-11-06T17:14:26Z</time>
   </trkpt>
   <trkpt lat="53.4392020" lon="-6.1724850">
    <ele>10.7</ele>
    <time>2025-11-06T17:14:31Z</time>
   </trkpt>
   <trkpt lat="53.4392060" lon="-6.1725830">
    <ele>10.8</ele>
    <time>2025-11-06T17:14:36Z</time>
   </trkpt>
   <trkpt lat="53.4392210" lon="-6.1726590">
    <ele>10.5</ele>
    <time>2025-11-06T17:14:47Z</time>
   </trkpt>
   <trkpt lat="53.4392320" lon="-6.1728100">
    <ele>10.7</ele>
    <time>2025-11-06T17:14:53Z</time>
   </trkpt>
   <trkpt lat="53.4392400" lon="-6.1729160">
    <ele>10.9</ele>
    <time>2025-11-06T17:14:58Z</time>
   </trkpt>
   <trkpt lat="53.4392510" lon="-6.1730370">
    <ele>11.0</ele>
    <time>2025-11-06T17:15:03Z</time>
   </trkpt>
   <trkpt lat="53.4392550" lon="-6.1731330">
    <ele>11.0</ele>
    <time>2025-11-06T17:15:09Z</time>
   </trkpt>
   <trkpt lat="53.4392690" lon="-6.1732080">
    <ele>11.0</ele>
    <time>2025-11-06T17:15:14Z</time>
   </trkpt>
   <trkpt lat="53.4392780" lon="-6.1732970">
    <ele>11.4</ele>
    <time>2025-11-06T17:15:20Z</time>
   </trkpt>
   <trkpt lat="53.4392830" lon="-6.1733920">
    <ele>11.1</ele>
    <time>2025-11-06T17:15:25Z</time>
   </trkpt>
   <trkpt lat="53.4392940" lon="-6.1734960">
    <ele>11.1</ele>
    <time>2025-11-06T17:15:30Z</time>
   </trkpt>
   <trkpt lat="53.4393090" lon="-6.1736120">
    <ele>11.0</ele>
    <time>2025-11-06T17:15:35Z</time>
   </trkpt>
   <trkpt lat="53.4393370" lon="-6.1736960">
    <ele>11.0</ele>
    <time>2025-11-06T17:15:41Z</time>
   </trkpt>
   <trkpt lat="53.4393630" lon="-6.1737650">
    <ele>11.0</ele>
    <time>2025-11-06T17:15:46Z</time>
   </trkpt>
   <trkpt lat="53.4394040" lon="-6.1738380">
    <ele>11.0</ele>
    <time>2025-11-06T17:15:51Z</time>
   </trkpt>
   <trkpt lat="53.4394340" lon="-6.1739150">
    <ele>11.0</ele>
    <time>2025-11-06T17:15:56Z</time>
   </trkpt>
   <trkpt lat="53.4394630" lon="-6.1740100">
    <ele>11.0</ele>
    <time>2025-11-06T17:16:02Z</time>
   </trkpt>
   <trkpt lat="53.4394940" lon="-6.1741070">
    <ele>11.0</ele>
    <time>2025-11-06T17:16:07Z</time>
   </trkpt>
   <trkpt lat="53.4395210" lon="-6.1742020">
    <ele>11.0</ele>
    <time>2025-11-06T17:16:12Z</time>
   </trkpt>
   <trkpt lat="53.4395640" lon="-6.1742760">
    <ele>11.0</ele>
    <time>2025-11-06T17:16:18Z</time>
   </trkpt>
   <trkpt lat="53.4396150" lon="-6.1743320">
    <ele>11.0</ele>
    <time>2025-11-06T17:16:23Z</time>
   </trkpt>
   <trkpt lat="53.4396580" lon="-6.1744130">
    <ele>11.0</ele>
    <time>2025-11-06T17:16:28Z</time>
   </trkpt>
   <trkpt lat="53.4396900" lon="-6.1745080">
    <ele>11.0</ele>
    <time>2025-11-06T17:16:34Z</time>
   </trkpt>
   <trkpt lat="53.4397160" lon="-6.1745910">
    <ele>11.0</ele>
    <time>2025-11-06T17:16:39Z</time>
   </trkpt>
   <trkpt lat="53.4397480" lon="-6.1746670">
    <ele>11.0</ele>
    <time>2025-11-06T17:16:44Z</time>
   </trkpt>
   <trkpt lat="53.4397930" lon="-6.1747280">
    <ele>11.0</ele>
    <time>2025-11-06T17:16:50Z</time>
   </trkpt>
   <trkpt lat="53.4398470" lon="-6.1747730">
    <ele>11.0</ele>
    <time>2025-11-06T17:16:55Z</time>
   </trkpt>
   <trkpt lat="53.4398830" lon="-6.1748180">
    <ele>11.0</ele>
    <time>2025-11-06T17:17:00Z</time>
   </trkpt>
   <trkpt lat="53.4399170" lon="-6.1748860">
    <ele>11.0</ele>
    <time>2025-11-06T17:17:06Z</time>
   </trkpt>
   <trkpt lat="53.4399330" lon="-6.1750090">
    <ele>11.0</ele>
    <time>2025-11-06T17:17:11Z</time>
   </trkpt>
   <trkpt lat="53.4399380" lon="-6.1751240">
    <ele>11.0</ele>
    <time>2025-11-06T17:17:16Z</time>
   </trkpt>
   <trkpt lat="53.4399700" lon="-6.1751870">
    <ele>11.0</ele>
    <time>2025-11-06T17:17:22Z</time>
   </trkpt>
   <trkpt lat="53.4400080" lon="-6.1752650">
    <ele>11.0</ele>
    <time>2025-11-06T17:17:27Z</time>
   </trkpt>
   <trkpt lat="53.4400530" lon="-6.1753140">
    <ele>11.0</ele>
    <time>2025-11-06T17:17:33Z</time>
   </trkpt>
   <trkpt lat="53.4401120" lon="-6.1754070">
    <ele>11.0</ele>
    <time>2025-11-06T17:17:38Z</time>
   </trkpt>
   <trkpt lat="53.4401740" lon="-6.1754890">
    <ele>10.9</ele>
    <time>2025-11-06T17:17:43Z</time>
   </trkpt>
   <trkpt lat="53.4402390" lon="-6.1755440">
    <ele>10.9</ele>
    <time>2025-11-06T17:17:49Z</time>
   </trkpt>
   <trkpt lat="53.4402990" lon="-6.1755570">
    <ele>11.3</ele>
    <time>2025-11-06T17:17:54Z</time>
   </trkpt>
   <trkpt lat="53.4403430" lon="-6.1754840">
    <ele>11.9</ele>
    <time>2025-11-06T17:17:59Z</time>
   </trkpt>
   <trkpt lat="53.4403660" lon="-6.1753850">
    <ele>12.3</ele>
    <time>2025-11-06T17:18:05Z</time>
   </trkpt>
   <trkpt lat="53.4403960" lon="-6.1752770">
    <ele>12.4</ele>
    <time>2025-11-06T17:18:10Z</time>
   </trkpt>
   <trkpt lat="53.4404100" lon="-6.1751630">
    <ele>12.5</ele>
    <time>2025-11-06T17:18:15Z</time>
   </trkpt>
   <trkpt lat="53.4404220" lon="-6.1750440">
    <ele>12.5</ele>
    <time>2025-11-06T17:18:21Z</time>
   </trkpt>
   <trkpt lat="53.4404470" lon="-6.1749330">
    <ele>12.5</ele>
    <time>2025-11-06T17:18:26Z</time>
   </trkpt>
   <trkpt lat="53.4404660" lon="-6.1748340">
    <ele>12.5</ele>
    <time>2025-11-06T17:18:31Z</time>
   </trkpt>
   <trkpt lat="53.4404980" lon="-6.1747430">
    <ele>12.5</ele>
    <time>2025-11-06T17:18:36Z</time>
   </trkpt>
   <trkpt lat="53.4405400" lon="-6.1746670">
    <ele>12.5</ele>
    <time>2025-11-06T17:18:42Z</time>
   </trkpt>
   <trkpt lat="53.4405820" lon="-6.1745980">
    <ele>12.5</ele>
    <time>2025-11-06T17:18:47Z</time>
   </trkpt>
   <trkpt lat="53.4406100" lon="-6.1745290">
    <ele>12.5</ele>
    <time>2025-11-06T17:18:52Z</time>
   </trkpt>
   <trkpt lat="53.4406420" lon="-6.1744480">
    <ele>12.5</ele>
    <time>2025-11-06T17:18:57Z</time>
   </trkpt>
   <trkpt lat="53.4406880" lon="-6.1743830">
    <ele>12.5</ele>
    <time>2025-11-06T17:19:03Z</time>
   </trkpt>
   <trkpt lat="53.4407410" lon="-6.1743280">
    <ele>12.5</ele>
    <time>2025-11-06T17:19:08Z</time>
   </trkpt>
   <trkpt lat="53.4407820" lon="-6.1742550">
    <ele>12.5</ele>
    <time>2025-11-06T17:19:13Z</time>
   </trkpt>
   <trkpt lat="53.4408230" lon="-6.1741800">
    <ele>12.5</ele>
    <time>2025-11-06T17:19:18Z</time>
   </trkpt>
   <trkpt lat="53.4408600" lon="-6.1741180">
    <ele>12.5</ele>
    <time>2025-11-06T17:19:23Z</time>
   </trkpt>
   <trkpt lat="53.4409060" lon="-6.1740620">
    <ele>12.5</ele>
    <time>2025-11-06T17:19:29Z</time>
   </trkpt>
   <trkpt lat="53.4409430" lon="-6.1739830">
    <ele>12.5</ele>
    <time>2025-11-06T17:19:34Z</time>
   </trkpt>
   <trkpt lat="53.4409920" lon="-6.1739150">
    <ele>12.7</ele>
    <time>2025-11-06T17:19:40Z</time>
   </trkpt>
   <trkpt lat="53.4410490" lon="-6.1738670">
    <ele>12.8</ele>
    <time>2025-11-06T17:19:45Z</time>
   </trkpt>
   <trkpt lat="53.4411080" lon="-6.1738090">
    <ele>12.8</ele>
    <time>2025-11-06T17:19:50Z</time>
   </trkpt>
   <trkpt lat="53.4411690" lon="-6.1737590">
    <ele>12.7</ele>
    <time>2025-11-06T17:19:56Z</time>
   </trkpt>
   <trkpt lat="53.4412300" lon="-6.1737050">
    <ele>12.4</ele>
    <time>2025-11-06T17:20:01Z</time>
   </trkpt>
   <trkpt lat="53.4412850" lon="-6.1736370">
    <ele>12.5</ele>
    <time>2025-11-06T17:20:06Z</time>
   </trkpt>
   <trkpt lat="53.4413390" lon="-6.1735650">
    <ele>13.1</ele>
    <time>2025-11-06T17:20:11Z</time>
   </trkpt>
   <trkpt lat="53.4414010" lon="-6.1735440">
    <ele>13.0</ele>
    <time>2025-11-06T17:20:17Z</time>
   </trkpt>
   <trkpt lat="53.4414590" lon="-6.1735000">
    <ele>13.0</ele>
    <time>2025-11-06T17:20:22Z</time>
   </trkpt>
   <trkpt lat="53.4415210" lon="-6.1734610">
    <ele>12.8</ele>
    <time>2025-11-06T17:20:27Z</time>
   </trkpt>
   <trkpt lat="53.4415830" lon="-6.1734510">
    <ele>13.1</ele>
    <time>2025-11-06T17:20:32Z</time>
   </trkpt>
   <trkpt lat="53.4416270" lon="-6.1734300">
    <ele>13.0</ele>
    <time>2025-11-06T17:20:38Z</time>
   </trkpt>
   <trkpt lat="53.4416710" lon="-6.1733990">
    <ele>12.8</ele>
    <time>2025-11-06T17:20:43Z</time>
   </trkpt>
   <trkpt lat="53.4417350" lon="-6.1733870">
    <ele>12.6</ele>
    <time>2025-11-06T17:20:49Z</time>
   </trkpt>
   <trkpt lat="53.4417970" lon="-6.1733740">
    <ele>12.3</ele>
    <time>2025-11-06T17:20:54Z</time>
   </trkpt>
   <trkpt lat="53.4418620" lon="-6.1733440">
    <ele>11.4</ele>
    <time>2025-11-06T17:20:59Z</time>
   </trkpt>
   <trkpt lat="53.4419340" lon="-6.1733050">
    <ele>11.1</ele>
    <time>2025-11-06T17:21:05Z</time>
   </trkpt>
   <trkpt lat="53.4420070" lon="-6.1732890">
    <ele>10.8</ele>
    <time>2025-11-06T17:21:10Z</time>
   </trkpt>
   <trkpt lat="53.4420580" lon="-6.1732790">
    <ele>10.9</ele>
    <time>2025-11-06T17:21:15Z</time>
   </trkpt>
   <trkpt lat="53.4421060" lon="-6.1732510">
    <ele>11.5</ele>
    <time>2025-11-06T17:21:21Z</time>
   </trkpt>
   <trkpt lat="53.4421650" lon="-6.1732230">
    <ele>11.1</ele>
    <time>2025-11-06T17:21:26Z</time>
   </trkpt>
   <trkpt lat="53.4422290" lon="-6.1732030">
    <ele>10.7</ele>
    <time>2025-11-06T17:21:31Z</time>
   </trkpt>
   <trkpt lat="53.4422910" lon="-6.1731860">
    <ele>11.2</ele>
    <time>2025-11-06T17:21:37Z</time>
   </trkpt>
   <trkpt lat="53.4423520" lon="-6.1731620">
    <ele>11.6</ele>
    <time>2025-11-06T17:21:42Z</time>
   </trkpt>
   <trkpt lat="53.4424180" lon="-6.1731490">
    <ele>11.7</ele>
    <time>2025-11-06T17:21:47Z</time>
   </trkpt>
   <trkpt lat="53.4424850" lon="-6.1731480">
    <ele>11.3</ele>
    <time>2025-11-06T17:21:53Z</time>
   </trkpt>
   <trkpt lat="53.4425270" lon="-6.1731160">
    <ele>10.8</ele>
    <time>2025-11-06T17:21:58Z</time>
   </trkpt>
   <trkpt lat="53.4425760" lon="-6.1730970">
    <ele>11.3</ele>
    <time>2025-11-06T17:22:13Z</time>
   </trkpt>
   <trkpt lat="53.4426330" lon="-6.1730380">
    <ele>11.6</ele>
    <time>2025-11-06T17:22:18Z</time>
   </trkpt>
   <trkpt lat="53.4426910" lon="-6.1729720">
    <ele>11.5</ele>
    <time>2025-11-06T17:22:23Z</time>
   </trkpt>
   <trkpt lat="53.4427710" lon="-6.1729260">
    <ele>10.8</ele>
    <time>2025-11-06T17:22:29Z</time>
   </trkpt>
   <trkpt lat="53.4428180" lon="-6.1729210">
    <ele>10.5</ele>
    <time>2025-11-06T17:22:34Z</time>
   </trkpt>
   <trkpt lat="53.4428590" lon="-6.1728870">
    <ele>10.7</ele>
    <time>2025-11-06T17:22:45Z</time>
   </trkpt>
   <trkpt lat="53.4429090" lon="-6.1728830">
    <ele>10.9</ele>
    <time>2025-11-06T17:22:52Z</time>
   </trkpt>
   <trkpt lat="53.4429610" lon="-6.1729130">
    <ele>10.7</ele>
    <time>2025-11-06T17:22:57Z</time>
   </trkpt>
   <trkpt lat="53.4430260" lon="-6.1729070">
    <ele>10.6</ele>
    <time>2025-11-06T17:23:02Z</time>
   </trkpt>
   <trkpt lat="53.4430730" lon="-6.1729050">
    <ele>11.1</ele>
    <time>2025-11-06T17:23:08Z</time>
   </trkpt>
   <trkpt lat="53.4431200" lon="-6.1729040">
    <ele>11.5</ele>
    <time>2025-11-06T17:23:17Z</time>
   </trkpt>
   <trkpt lat="53.4431770" lon="-6.1728790">
    <ele>11.1</ele>
    <time>2025-11-06T17:23:22Z</time>
   </trkpt>
   <trkpt lat="53.4432460" lon="-6.1728440">
    <ele>11.2</ele>
    <time>2025-11-06T17:23:28Z</time>
   </trkpt>
   <trkpt lat="53.4433390" lon="-6.1727790">
    <ele>11.5</ele>
    <time>2025-11-06T17:23:33Z</time>
   </trkpt>
   <trkpt lat="53.4434240" lon="-6.1727290">
    <ele>11.7</ele>
    <time>2025-11-06T17:23:38Z</time>
   </trkpt>
   <trkpt lat="53.4434990" lon="-6.1726870">
    <ele>11.4</ele>
    <time>2025-11-06T17:23:43Z</time>
   </trkpt>
   <trkpt lat="53.4435810" lon="-6.1726610">
    <ele>11.5</ele>
    <time>2025-11-06T17:23:48Z</time>
   </trkpt>
   <trkpt lat="53.4436550" lon="-6.1726280">
    <ele>11.1</ele>
    <time>2025-11-06T17:23:54Z</time>
   </trkpt>
   <trkpt lat="53.4437370" lon="-6.1726160">
    <ele>10.8</ele>
    <time>2025-11-06T17:23:59Z</time>
   </trkpt>
   <trkpt lat="53.4438140" lon="-6.1725950">
    <ele>10.9</ele>
    <time>2025-11-06T17:24:04Z</time>
   </trkpt>
   <trkpt lat="53.4439110" lon="-6.1725630">
    <ele>10.7</ele>
    <time>2025-11-06T17:24:09Z</time>
   </trkpt>
   <trkpt lat="53.4440040" lon="-6.1725500">
    <ele>10.8</ele>
    <time>2025-11-06T17:24:15Z</time>
   </trkpt>
   <trkpt lat="53.4440700" lon="-6.1725180">
    <ele>10.6</ele>
    <time>2025-11-06T17:24:20Z</time>
   </trkpt>
   <trkpt lat="53.4441330" lon="-6.1724820">
    <ele>10.6</ele>
    <time>2025-11-06T17:24:25Z</time>
   </trkpt>
   <trkpt lat="53.4442120" lon="-6.1724510">
    <ele>10.5</ele>
    <time>2025-11-06T17:24:31Z</time>
   </trkpt>
   <trkpt lat="53.4442830" lon="-6.1724280">
    <ele>10.8</ele>
    <time>2025-11-06T17:24:36Z</time>
   </trkpt>
   <trkpt lat="53.4443490" lon="-6.1724100">
    <ele>10.8</ele>
    <time>2025-11-06T17:24:41Z</time>
   </trkpt>
   <trkpt lat="53.4444100" lon="-6.1723960">
    <ele>11.0</ele>
    <time>2025-11-06T17:24:46Z</time>
   </trkpt>
   <trkpt lat="53.4444700" lon="-6.1723600">
    <ele>11.1</ele>
    <time>2025-11-06T17:24:52Z</time>
   </trkpt>
   <trkpt lat="53.4445260" lon="-6.1723160">
    <ele>11.0</ele>
    <time>2025-11-06T17:24:57Z</time>
   </trkpt>
   <trkpt lat="53.4445900" lon="-6.1722810">
    <ele>11.1</ele>
    <time>2025-11-06T17:25:02Z</time>
   </trkpt>
   <trkpt lat="53.4446570" lon="-6.1722390">
    <ele>11.2</ele>
    <time>2025-11-06T17:25:07Z</time>
   </trkpt>
   <trkpt lat="53.4447240" lon="-6.1721950">
    <ele>11.1</ele>
    <time>2025-11-06T17:25:12Z</time>
   </trkpt>
   <trkpt lat="53.4447850" lon="-6.1721470">
    <ele>11.3</ele>
    <time>2025-11-06T17:25:17Z</time>
   </trkpt>
   <trkpt lat="53.4448370" lon="-6.1720980">
    <ele>11.0</ele>
    <time>2025-11-06T17:25:23Z</time>
   </trkpt>
   <trkpt lat="53.4448990" lon="-6.1720630">
    <ele>10.7</ele>
    <time>2025-11-06T17:25:28Z</time>
   </trkpt>
   <trkpt lat="53.4449660" lon="-6.1720140">
    <ele>11.1</ele>
    <time>2025-11-06T17:25:33Z</time>
   </trkpt>
   <trkpt lat="53.4450140" lon="-6.1719700">
    <ele>11.2</ele>
    <time>2025-11-06T17:25:38Z</time>
   </trkpt>
   <trkpt lat="53.4450660" lon="-6.1719180">
    <ele>11.0</ele>
    <time>2025-11-06T17:25:43Z</time>
   </trkpt>
   <trkpt lat="53.4451150" lon="-6.1718470">
    <ele>11.0</ele>
    <time>2025-11-06T17:25:49Z</time>
   </trkpt>
   <trkpt lat="53.4451630" lon="-6.1717890">
    <ele>11.0</ele>
    <time>2025-11-06T17:25:54Z</time>
   </trkpt>
   <trkpt lat="53.4452030" lon="-6.1717030">
    <ele>11.1</ele>
    <time>2025-11-06T17:25:59Z</time>
   </trkpt>
   <trkpt lat="53.4452290" lon="-6.1716020">
    <ele>11.3</ele>
    <time>2025-11-06T17:26:04Z</time>
   </trkpt>
   <trkpt lat="53.4452680" lon="-6.1715360">
    <ele>11.3</ele>
    <time>2025-11-06T17:26:09Z</time>
   </trkpt>
   <trkpt lat="53.4453040" lon="-6.1714730">
    <ele>11.2</ele>
    <time>2025-11-06T17:26:14Z</time>
   </trkpt>
   <trkpt lat="53.4453210" lon="-6.1713440">
    <ele>11.0</ele>
    <time>2025-11-06T17:26:20Z</time>
   </trkpt>
   <trkpt lat="53.4453200" lon="-6.1712500">
    <ele>10.9</ele>
    <time>2025-11-06T17:26:25Z</time>
   </trkpt>
   <trkpt lat="53.4453160" lon="-6.1711500">
    <ele>11.1</ele>
    <time>2025-11-06T17:26:30Z</time>
   </trkpt>
   <trkpt lat="53.4453220" lon="-6.1710170">
    <ele>11.4</ele>
    <time>2025-11-06T17:26:35Z</time>
   </trkpt>
   <trkpt lat="53.4453380" lon="-6.1709050">
    <ele>11.6</ele>
    <time>2025-11-06T17:26:40Z</time>
   </trkpt>
   <trkpt lat="53.4453320" lon="-6.1707970">
    <ele>11.7</ele>
    <time>2025-11-06T17:26:46Z</time>
   </trkpt>
   <trkpt lat="53.4453140" lon="-6.1707230">
    <ele>11.7</ele>
    <time>2025-11-06T17:26:53Z</time>
   </trkpt>
   <trkpt lat="53.4453030" lon="-6.1706210">
    <ele>10.8</ele>
    <time>2025-11-06T17:27:11Z</time>
   </trkpt>
   <trkpt lat="53.4452810" lon="-6.1704770">
    <ele>11.1</ele>
    <time>2025-11-06T17:27:16Z</time>
   </trkpt>
   <trkpt lat="53.4452370" lon="-6.1703630">
    <ele>11.1</ele>
    <time>2025-11-06T17:27:22Z</time>
   </trkpt>
   <trkpt lat="53.4452080" lon="-6.1702540">
    <ele>10.9</ele>
    <time>2025-11-06T17:27:27Z</time>
   </trkpt>
   <trkpt lat="53.4451730" lon="-6.1701450">
    <ele>10.8</ele>
    <time>2025-11-06T17:27:32Z</time>
   </trkpt>
   <trkpt lat="53.4451510" lon="-6.1700730">
    <ele>10.9</ele>
    <time>2025-11-06T17:27:38Z</time>
   </trkpt>
   <trkpt lat="53.4451230" lon="-6.1700100">
    <ele>11.0</ele>
    <time>2025-11-06T17:27:44Z</time>
   </trkpt>
   <trkpt lat="53.4450980" lon="-6.1699290">
    <ele>10.7</ele>
    <time>2025-11-06T17:27:49Z</time>
   </trkpt>
   <trkpt lat="53.4450790" lon="-6.1698410">
    <ele>10.7</ele>
    <time>2025-11-06T17:27:54Z</time>
   </trkpt>
   <trkpt lat="53.4450610" lon="-6.1697650">
    <ele>11.1</ele>
    <time>2025-11-06T17:27:59Z</time>
   </trkpt>
   <trkpt lat="53.4450300" lon="-6.1696570">
    <ele>11.1</ele>
    <time>2025-11-06T17:28:04Z</time>
   </trkpt>
   <trkpt lat="53.4449970" lon="-6.1695440">
    <ele>10.8</ele>
    <time>2025-11-06T17:28:09Z</time>
   </trkpt>
   <trkpt lat="53.4449540" lon="-6.1694310">
    <ele>11.1</ele>
    <time>2025-11-06T17:28:14Z</time>
   </trkpt>
   <trkpt lat="53.4449300" lon="-6.1693210">
    <ele>10.8</ele>
    <time>2025-11-06T17:28:19Z</time>
   </trkpt>
   <trkpt lat="53.4449130" lon="-6.1692100">
    <ele>10.5</ele>
    <time>2025-11-06T17:28:25Z</time>
   </trkpt>
   <trkpt lat="53.4449090" lon="-6.1691020">
    <ele>10.3</ele>
    <time>2025-11-06T17:28:30Z</time>
   </trkpt>
   <trkpt lat="53.4449220" lon="-6.1690030">
    <ele>10.5</ele>
    <time>2025-11-06T17:28:35Z</time>
   </trkpt>
   <trkpt lat="53.4449200" lon="-6.1688860">
    <ele>10.9</ele>
    <time>2025-11-06T17:28:40Z</time>
   </trkpt>
   <trkpt lat="53.4449290" lon="-6.1687700">
    <ele>10.8</ele>
    <time>2025-11-06T17:28:45Z</time>
   </trkpt>
   <trkpt lat="53.4449190" lon="-6.1686600">
    <ele>11.0</ele>
    <time>2025-11-06T17:28:51Z</time>
   </trkpt>
   <trkpt lat="53.4448920" lon="-6.1685620">
    <ele>11.6</ele>
    <time>2025-11-06T17:28:56Z</time>
   </trkpt>
   <trkpt lat="53.4449130" lon="-6.1684960">
    <ele>11.8</ele>
    <time>2025-11-06T17:29:01Z</time>
   </trkpt>
   <trkpt lat="53.4449910" lon="-6.1684570">
    <ele>11.8</ele>
    <time>2025-11-06T17:29:06Z</time>
   </trkpt>
   <trkpt lat="53.4450630" lon="-6.1684440">
    <ele>11.9</ele>
    <time>2025-11-06T17:29:11Z</time>
   </trkpt>
   <trkpt lat="53.4451240" lon="-6.1684210">
    <ele>12.3</ele>
    <time>2025-11-06T17:29:17Z</time>
   </trkpt>
   <trkpt lat="53.4451640" lon="-6.1683680">
    <ele>11.9</ele>
    <time>2025-11-06T17:29:22Z</time>
   </trkpt>
   <trkpt lat="53.4451960" lon="-6.1683060">
    <ele>11.4</ele>
    <time>2025-11-06T17:29:27Z</time>
   </trkpt>
   <trkpt lat="53.4452310" lon="-6.1682180">
    <ele>11.7</ele>
    <time>2025-11-06T17:29:32Z</time>
   </trkpt>
   <trkpt lat="53.4452730" lon="-6.1681110">
    <ele>11.6</ele>
    <time>2025-11-06T17:29:37Z</time>
   </trkpt>
   <trkpt lat="53.4453150" lon="-6.1680010">
    <ele>12.1</ele>
    <time>2025-11-06T17:29:43Z</time>
   </trkpt>
   <trkpt lat="53.4453400" lon="-6.1678850">
    <ele>12.3</ele>
    <time>2025-11-06T17:29:48Z</time>
   </trkpt>
   <trkpt lat="53.4453470" lon="-6.1677680">
    <ele>12.2</ele>
    <time>2025-11-06T17:29:53Z</time>
   </trkpt>
   <trkpt lat="53.4453560" lon="-6.1676670">
    <ele>13.0</ele>
    <time>2025-11-06T17:29:58Z</time>
   </trkpt>
   <trkpt lat="53.4453960" lon="-6.1675730">
    <ele>13.1</ele>
    <time>2025-11-06T17:30:03Z</time>
   </trkpt>
   <trkpt lat="53.4454270" lon="-6.1674790">
    <ele>13.0</ele>
    <time>2025-11-06T17:30:09Z</time>
   </trkpt>
   <trkpt lat="53.4454440" lon="-6.1673790">
    <ele>13.5</ele>
    <time>2025-11-06T17:30:14Z</time>
   </trkpt>
   <trkpt lat="53.4454700" lon="-6.1672800">
    <ele>13.3</ele>
    <time>2025-11-06T17:30:19Z</time>
   </trkpt>
   <trkpt lat="53.4454720" lon="-6.1671890">
    <ele>12.7</ele>
    <time>2025-11-06T17:30:24Z</time>
   </trkpt>
   <trkpt lat="53.4454750" lon="-6.1671030">
    <ele>12.6</ele>
    <time>2025-11-06T17:30:55Z</time>
   </trkpt>
   <trkpt lat="53.4455030" lon="-6.1669790">
    <ele>13.1</ele>
    <time>2025-11-06T17:31:01Z</time>
   </trkpt>
   <trkpt lat="53.4455110" lon="-6.1668670">
    <ele>13.4</ele>
    <time>2025-11-06T17:31:06Z</time>
   </trkpt>
   <trkpt lat="53.4455130" lon="-6.1667470">
    <ele>14.1</ele>
    <time>2025-11-06T17:31:11Z</time>
   </trkpt>
   <trkpt lat="53.4455310" lon="-6.1666580">
    <ele>13.8</ele>
    <time>2025-11-06T17:31:16Z</time>
   </trkpt>
   <trkpt lat="53.4455540" lon="-6.1665580">
    <ele>13.4</ele>
    <time>2025-11-06T17:31:21Z</time>
   </trkpt>
   <trkpt lat="53.4455950" lon="-6.1664650">
    <ele>13.4</ele>
    <time>2025-11-06T17:31:27Z</time>
   </trkpt>
   <trkpt lat="53.4456310" lon="-6.1663830">
    <ele>13.1</ele>
    <time>2025-11-06T17:31:32Z</time>
   </trkpt>
   <trkpt lat="53.4456740" lon="-6.1663120">
    <ele>13.1</ele>
    <time>2025-11-06T17:31:37Z</time>
   </trkpt>
   <trkpt lat="53.4457300" lon="-6.1662250">
    <ele>13.4</ele>
    <time>2025-11-06T17:31:43Z</time>
   </trkpt>
   <trkpt lat="53.4457720" lon="-6.1661450">
    <ele>13.4</ele>
    <time>2025-11-06T17:31:48Z</time>
   </trkpt>
   <trkpt lat="53.4458290" lon="-6.1660760">
    <ele>13.3</ele>
    <time>2025-11-06T17:31:53Z</time>
   </trkpt>
   <trkpt lat="53.4458720" lon="-6.1659970">
    <ele>13.3</ele>
    <time>2025-11-06T17:31:58Z</time>
   </trkpt>
   <trkpt lat="53.4459110" lon="-6.1659060">
    <ele>13.4</ele>
    <time>2025-11-06T17:32:03Z</time>
   </trkpt>
   <trkpt lat="53.4459450" lon="-6.1657970">
    <ele>13.4</ele>
    <time>2025-11-06T17:32:08Z</time>
   </trkpt>
   <trkpt lat="53.4459910" lon="-6.1657190">
    <ele>13.2</ele>
    <time>2025-11-06T17:32:14Z</time>
   </trkpt>
   <trkpt lat="53.4460280" lon="-6.1656380">
    <ele>12.9</ele>
    <time>2025-11-06T17:32:20Z</time>
   </trkpt>
   <trkpt lat="53.4460950" lon="-6.1655660">
    <ele>13.0</ele>
    <time>2025-11-06T17:32:25Z</time>
   </trkpt>
   <trkpt lat="53.4461410" lon="-6.1654890">
    <ele>13.2</ele>
    <time>2025-11-06T17:32:30Z</time>
   </trkpt>
   <trkpt lat="53.4461880" lon="-6.1654220">
    <ele>14.0</ele>
    <time>2025-11-06T17:32:35Z</time>
   </trkpt>
   <trkpt lat="53.4462230" lon="-6.1653640">
    <ele>14.1</ele>
    <time>2025-11-06T17:32:40Z</time>
   </trkpt>
   <trkpt lat="53.4462620" lon="-6.1653120">
    <ele>13.9</ele>
    <time>2025-11-06T17:32:45Z</time>
   </trkpt>
   <trkpt lat="53.4462920" lon="-6.1652230">
    <ele>13.7</ele>
    <time>2025-11-06T17:32:51Z</time>
   </trkpt>
   <trkpt lat="53.4462820" lon="-6.1651290">
    <ele>14.0</ele>
    <time>2025-11-06T17:32:56Z</time>
   </trkpt>
   <trkpt lat="53.4462620" lon="-6.1650070">
    <ele>14.1</ele>
    <time>2025-11-06T17:33:01Z</time>
   </trkpt>
   <trkpt lat="53.4462640" lon="-6.1648910">
    <ele>14.0</ele>
    <time>2025-11-06T17:33:06Z</time>
   </trkpt>
   <trkpt lat="53.4462780" lon="-6.1647670">
    <ele>14.1</ele>
    <time>2025-11-06T17:33:12Z</time>
   </trkpt>
   <trkpt lat="53.4462820" lon="-6.1646570">
    <ele>14.1</ele>
    <time>2025-11-06T17:33:17Z</time>
   </trkpt>
   <trkpt lat="53.4462750" lon="-6.1645550">
    <ele>14.3</ele>
    <time>2025-11-06T17:33:22Z</time>
   </trkpt>
   <trkpt lat="53.4462790" lon="-6.1644610">
    <ele>14.2</ele>
    <time>2025-11-06T17:33:27Z</time>
   </trkpt>
   <trkpt lat="53.4462870" lon="-6.1643560">
    <ele>14.0</ele>
    <time>2025-11-06T17:33:32Z</time>
   </trkpt>
   <trkpt lat="53.4462960" lon="-6.1642520">
    <ele>13.8</ele>
    <time>2025-11-06T17:33:37Z</time>
   </trkpt>
   <trkpt lat="53.4462850" lon="-6.1641480">
    <ele>13.7</ele>
    <time>2025-11-06T17:33:42Z</time>
   </trkpt>
   <trkpt lat="53.4462730" lon="-6.1640700">
    <ele>13.5</ele>
    <time>2025-11-06T17:33:47Z</time>
   </trkpt>
   <trkpt lat="53.4462730" lon="-6.1639830">
    <ele>13.7</ele>
    <time>2025-11-06T17:33:52Z</time>
   </trkpt>
   <trkpt lat="53.4462650" lon="-6.1639080">
    <ele>13.8</ele>
    <time>2025-11-06T17:33:58Z</time>
   </trkpt>
   <trkpt lat="53.4462750" lon="-6.1638310">
    <ele>13.9</ele>
    <time>2025-11-06T17:34:06Z</time>
   </trkpt>
   <trkpt lat="53.4462800" lon="-6.1637150">
    <ele>13.8</ele>
    <time>2025-11-06T17:34:11Z</time>
   </trkpt>
   <trkpt lat="53.4462980" lon="-6.1635970">
    <ele>13.8</ele>
    <time>2025-11-06T17:34:16Z</time>
   </trkpt>
   <trkpt lat="53.4463100" lon="-6.1634640">
    <ele>14.0</ele>
    <time>2025-11-06T17:34:21Z</time>
   </trkpt>
   <trkpt lat="53.4463160" lon="-6.1633080">
    <ele>14.1</ele>
    <time>2025-11-06T17:34:27Z</time>
   </trkpt>
   <trkpt lat="53.4462990" lon="-6.1631880">
    <ele>14.2</ele>
    <time>2025-11-06T17:34:32Z</time>
   </trkpt>
   <trkpt lat="53.4463450" lon="-6.1630990">
    <ele>14.1</ele>
    <time>2025-11-06T17:34:37Z</time>
   </trkpt>
   <trkpt lat="53.4463270" lon="-6.1629930">
    <ele>13.6</ele>
    <time>2025-11-06T17:34:43Z</time>
   </trkpt>
   <trkpt lat="53.4463690" lon="-6.1628470">
    <ele>13.5</ele>
    <time>2025-11-06T17:34:49Z</time>
   </trkpt>
   <trkpt lat="53.4463790" lon="-6.1627470">
    <ele>13.8</ele>
    <time>2025-11-06T17:34:54Z</time>
   </trkpt>
   <trkpt lat="53.4463870" lon="-6.1626390">
    <ele>14.4</ele>
    <time>2025-11-06T17:34:59Z</time>
   </trkpt>
   <trkpt lat="53.4463910" lon="-6.1625320">
    <ele>14.6</ele>
    <time>2025-11-06T17:35:04Z</time>
   </trkpt>
   <trkpt lat="53.4463690" lon="-6.1624340">
    <ele>14.7</ele>
    <time>2025-11-06T17:35:09Z</time>
   </trkpt>
   <trkpt lat="53.4463850" lon="-6.1623410">
    <ele>14.9</ele>
    <time>2025-11-06T17:35:14Z</time>
   </trkpt>
   <trkpt lat="53.4463880" lon="-6.1622470">
    <ele>15.0</ele>
    <time>2025-11-06T17:35:20Z</time>
   </trkpt>
   <trkpt lat="53.4463910" lon="-6.1621490">
    <ele>15.0</ele>
    <time>2025-11-06T17:35:25Z</time>
   </trkpt>
   <trkpt lat="53.4464070" lon="-6.1620310">
    <ele>14.7</ele>
    <time>2025-11-06T17:35:30Z</time>
   </trkpt>
   <trkpt lat="53.4464080" lon="-6.1619110">
    <ele>14.8</ele>
    <time>2025-11-06T17:35:35Z</time>
   </trkpt>
   <trkpt lat="53.4464000" lon="-6.1617940">
    <ele>14.9</ele>
    <time>2025-11-06T17:35:41Z</time>
   </trkpt>
   <trkpt lat="53.4463930" lon="-6.1616910">
    <ele>14.8</ele>
    <time>2025-11-06T17:35:46Z</time>
   </trkpt>
   <trkpt lat="53.4464040" lon="-6.1615990">
    <ele>14.6</ele>
    <time>2025-11-06T17:35:51Z</time>
   </trkpt>
   <trkpt lat="53.4464020" lon="-6.1614930">
    <ele>14.0</ele>
    <time>2025-11-06T17:35:56Z</time>
   </trkpt>
   <trkpt lat="53.4464060" lon="-6.1613930">
    <ele>13.9</ele>
    <time>2025-11-06T17:36:02Z</time>
   </trkpt>
   <trkpt lat="53.4464050" lon="-6.1612730">
    <ele>14.1</ele>
    <time>2025-11-06T17:36:07Z</time>
   </trkpt>
   <trkpt lat="53.4463910" lon="-6.1611820">
    <ele>14.5</ele>
    <time>2025-11-06T17:36:12Z</time>
   </trkpt>
   <trkpt lat="53.4463810" lon="-6.1610830">
    <ele>14.9</ele>
    <time>2025-11-06T17:36:17Z</time>
   </trkpt>
   <trkpt lat="53.4463740" lon="-6.1609830">
    <ele>15.2</ele>
    <time>2025-11-06T17:36:22Z</time>
   </trkpt>
   <trkpt lat="53.4463790" lon="-6.1608880">
    <ele>15.3</ele>
    <time>2025-11-06T17:36:28Z</time>
   </trkpt>
   <trkpt lat="53.4464020" lon="-6.1607620">
    <ele>15.3</ele>
    <time>2025-11-06T17:36:33Z</time>
   </trkpt>
   <trkpt lat="53.4464420" lon="-6.1606790">
    <ele>15.3</ele>
    <time>2025-11-06T17:36:38Z</time>
   </trkpt>
   <trkpt lat="53.4464960" lon="-6.1606180">
    <ele>15.5</ele>
    <time>2025-11-06T17:36:43Z</time>
   </trkpt>
   <trkpt lat="53.4465590" lon="-6.1605850">
    <ele>15.8</ele>
    <time>2025-11-06T17:36:49Z</time>
   </trkpt>
   <trkpt lat="53.4466150" lon="-6.1605480">
    <ele>15.8</ele>
    <time>2025-11-06T17:36:54Z</time>
   </trkpt>
   <trkpt lat="53.4466790" lon="-6.1605300">
    <ele>15.9</ele>
    <time>2025-11-06T17:36:59Z</time>
   </trkpt>
   <trkpt lat="53.4467390" lon="-6.1604880">
    <ele>15.7</ele>
    <time>2025-11-06T17:37:04Z</time>
   </trkpt>
   <trkpt lat="53.4467960" lon="-6.1604410">
    <ele>15.6</ele>
    <time>2025-11-06T17:37:09Z</time>
   </trkpt>
   <trkpt lat="53.4468470" lon="-6.1603880">
    <ele>15.4</ele>
    <time>2025-11-06T17:37:14Z</time>
   </trkpt>
   <trkpt lat="53.4469100" lon="-6.1603410">
    <ele>15.2</ele>
    <time>2025-11-06T17:37:20Z</time>
   </trkpt>
   <trkpt lat="53.4469550" lon="-6.1602740">
    <ele>14.9</ele>
    <time>2025-11-06T17:37:25Z</time>
   </trkpt>
   <trkpt lat="53.4470000" lon="-6.1602060">
    <ele>14.5</ele>
    <time>2025-11-06T17:37:30Z</time>
   </trkpt>
   <trkpt lat="53.4470460" lon="-6.1601280">
    <ele>14.2</ele>
    <time>2025-11-06T17:37:35Z</time>
   </trkpt>
   <trkpt lat="53.4470800" lon="-6.1600380">
    <ele>14.2</ele>
    <time>2025-11-06T17:37:40Z</time>
   </trkpt>
   <trkpt lat="53.4471200" lon="-6.1599470">
    <ele>13.9</ele>
    <time>2025-11-06T17:37:45Z</time>
   </trkpt>
   <trkpt lat="53.4471420" lon="-6.1598430">
    <ele>13.7</ele>
    <time>2025-11-06T17:37:51Z</time>
   </trkpt>
   <trkpt lat="53.4471560" lon="-6.1597390">
    <ele>13.2</ele>
    <time>2025-11-06T17:37:56Z</time>
   </trkpt>
   <trkpt lat="53.4471610" lon="-6.1596310">
    <ele>12.8</ele>
    <time>2025-11-06T17:38:01Z</time>
   </trkpt>
   <trkpt lat="53.4471560" lon="-6.1595380">
    <ele>12.7</ele>
    <time>2025-11-06T17:38:06Z</time>
   </trkpt>
   <trkpt lat="53.4471330" lon="-6.1594300">
    <ele>12.5</ele>
    <time>2025-11-06T17:38:11Z</time>
   </trkpt>
   <trkpt lat="53.4471240" lon="-6.1593250">
    <ele>12.3</ele>
    <time>2025-11-06T17:38:17Z</time>
   </trkpt>
   <trkpt lat="53.4471190" lon="-6.1592030">
    <ele>11.8</ele>
    <time>2025-11-06T17:38:22Z</time>
   </trkpt>
   <trkpt lat="53.4471070" lon="-6.1590990">
    <ele>11.7</ele>
    <time>2025-11-06T17:38:27Z</time>
   </trkpt>
   <trkpt lat="53.4471010" lon="-6.1589880">
    <ele>11.7</ele>
    <time>2025-11-06T17:38:32Z</time>
   </trkpt>
   <trkpt lat="53.4470960" lon="-6.1588840">
    <ele>11.7</ele>
    <time>2025-11-06T17:38:38Z</time>
   </trkpt>
   <trkpt lat="53.4471010" lon="-6.1587960">
    <ele>11.6</ele>
    <time>2025-11-06T17:38:43Z</time>
   </trkpt>
   <trkpt lat="53.4471740" lon="-6.1587860">
    <ele>11.5</ele>
    <time>2025-11-06T17:38:49Z</time>
   </trkpt>
   <trkpt lat="53.4472300" lon="-6.1588010">
    <ele>11.6</ele>
    <time>2025-11-06T17:38:54Z</time>
   </trkpt>
   <trkpt lat="53.4472820" lon="-6.1588080">
    <ele>11.6</ele>
    <time>2025-11-06T17:38:59Z</time>
   </trkpt>
   <trkpt lat="53.4473340" lon="-6.1588060">
    <ele>11.5</ele>
    <time>2025-11-06T17:39:05Z</time>
   </trkpt>
   <trkpt lat="53.4473890" lon="-6.1588040">
    <ele>11.3</ele>
    <time>2025-11-06T17:39:10Z</time>
   </trkpt>
   <trkpt lat="53.4474510" lon="-6.1587850">
    <ele>11.0</ele>
    <time>2025-11-06T17:39:15Z</time>
   </trkpt>
   <trkpt lat="53.4475190" lon="-6.1587760">
    <ele>10.6</ele>
    <time>2025-11-06T17:39:21Z</time>
   </trkpt>
   <trkpt lat="53.4475810" lon="-6.1587680">
    <ele>10.6</ele>
    <time>2025-11-06T17:39:26Z</time>
   </trkpt>
   <trkpt lat="53.4476450" lon="-6.1587920">
    <ele>10.7</ele>
    <time>2025-11-06T17:39:31Z</time>
   </trkpt>
   <trkpt lat="53.4477180" lon="-6.1587590">
    <ele>10.8</ele>
    <time>2025-11-06T17:39:36Z</time>
   </trkpt>
   <trkpt lat="53.4477810" lon="-6.1587290">
    <ele>10.9</ele>
    <time>2025-11-06T17:39:42Z</time>
   </trkpt>
   <trkpt lat="53.4478310" lon="-6.1587160">
    <ele>11.0</ele>
    <time>2025-11-06T17:39:47Z</time>
   </trkpt>
   <trkpt lat="53.4478900" lon="-6.1587030">
    <ele>10.8</ele>
    <time>2025-11-06T17:39:53Z</time>
   </trkpt>
   <trkpt lat="53.4479520" lon="-6.1587110">
    <ele>10.5</ele>
    <time>2025-11-06T17:39:58Z</time>
   </trkpt>
   <trkpt lat="53.4480110" lon="-6.1587220">
    <ele>10.4</ele>
    <time>2025-11-06T17:40:03Z</time>
   </trkpt>
   <trkpt lat="53.4480850" lon="-6.1587400">
    <ele>10.4</ele>
    <time>2025-11-06T17:40:09Z</time>
   </trkpt>
   <trkpt lat="53.4481420" lon="-6.1587270">
    <ele>10.3</ele>
    <time>2025-11-06T17:40:14Z</time>
   </trkpt>
   <trkpt lat="53.4482030" lon="-6.1586820">
    <ele>10.0</ele>
    <time>2025-11-06T17:40:19Z</time>
   </trkpt>
   <trkpt lat="53.4482560" lon="-6.1586670">
    <ele>10.0</ele>
    <time>2025-11-06T17:40:25Z</time>
   </trkpt>
   <trkpt lat="53.4483040" lon="-6.1586590">
    <ele>9.8</ele>
    <time>2025-11-06T17:40:30Z</time>
   </trkpt>
   <trkpt lat="53.4483550" lon="-6.1586760">
    <ele>9.6</ele>
    <time>2025-11-06T17:40:35Z</time>
   </trkpt>
   <trkpt lat="53.4484150" lon="-6.1586940">
    <ele>9.4</ele>
    <time>2025-11-06T17:40:41Z</time>
   </trkpt>
   <trkpt lat="53.4484760" lon="-6.1586870">
    <ele>9.3</ele>
    <time>2025-11-06T17:40:46Z</time>
   </trkpt>
   <trkpt lat="53.4485360" lon="-6.1586610">
    <ele>9.6</ele>
    <time>2025-11-06T17:40:51Z</time>
   </trkpt>
   <trkpt lat="53.4485960" lon="-6.1586530">
    <ele>9.4</ele>
    <time>2025-11-06T17:40:56Z</time>
   </trkpt>
   <trkpt lat="53.4486790" lon="-6.1586860">
    <ele>9.3</ele>
    <time>2025-11-06T17:41:02Z</time>
   </trkpt>
   <trkpt lat="53.4487530" lon="-6.1586710">
    <ele>9.4</ele>
    <time>2025-11-06T17:41:07Z</time>
   </trkpt>
   <trkpt lat="53.4488280" lon="-6.1586560">
    <ele>9.4</ele>
    <time>2025-11-06T17:41:12Z</time>
   </trkpt>
   <trkpt lat="53.4488840" lon="-6.1586350">
    <ele>8.8</ele>
    <time>2025-11-06T17:41:17Z</time>
   </trkpt>
   <trkpt lat="53.4489380" lon="-6.1586160">
    <ele>8.4</ele>
    <time>2025-11-06T17:41:23Z</time>
   </trkpt>
   <trkpt lat="53.4489970" lon="-6.1586020">
    <ele>8.4</ele>
    <time>2025-11-06T17:41:28Z</time>
   </trkpt>
   <trkpt lat="53.4490570" lon="-6.1586000">
    <ele>8.4</ele>
    <time>2025-11-06T17:41:33Z</time>
   </trkpt>
   <trkpt lat="53.4491120" lon="-6.1586020">
    <ele>8.1</ele>
    <time>2025-11-06T17:41:39Z</time>
   </trkpt>
   <trkpt lat="53.4491620" lon="-6.1585900">
    <ele>7.7</ele>
    <time>2025-11-06T17:41:44Z</time>
   </trkpt>
   <trkpt lat="53.4492180" lon="-6.1585800">
    <ele>7.3</ele>
    <time>2025-11-06T17:41:49Z</time>
   </trkpt>
   <trkpt lat="53.4492760" lon="-6.1585670">
    <ele>7.5</ele>
    <time>2025-11-06T17:41:54Z</time>
   </trkpt>
   <trkpt lat="53.4493300" lon="-6.1585620">
    <ele>7.7</ele>
    <time>2025-11-06T17:42:00Z</time>
   </trkpt>
   <trkpt lat="53.4493730" lon="-6.1585250">
    <ele>7.6</ele>
    <time>2025-11-06T17:42:06Z</time>
   </trkpt>
   <trkpt lat="53.4494090" lon="-6.1583790">
    <ele>7.6</ele>
    <time>2025-11-06T17:42:11Z</time>
   </trkpt>
   <trkpt lat="53.4494560" lon="-6.1583070">
    <ele>7.5</ele>
    <time>2025-11-06T17:42:16Z</time>
   </trkpt>
   <trkpt lat="53.4495110" lon="-6.1582350">
    <ele>7.8</ele>
    <time>2025-11-06T17:42:22Z</time>
   </trkpt>
   <trkpt lat="53.4495430" lon="-6.1581440">
    <ele>7.6</ele>
    <time>2025-11-06T17:42:27Z</time>
   </trkpt>
   <trkpt lat="53.4495670" lon="-6.1580330">
    <ele>7.6</ele>
    <time>2025-11-06T17:42:32Z</time>
   </trkpt>
   <trkpt lat="53.4496200" lon="-6.1579820">
    <ele>7.5</ele>
    <time>2025-11-06T17:42:38Z</time>
   </trkpt>
   <trkpt lat="53.4496870" lon="-6.1579740">
    <ele>7.7</ele>
    <time>2025-11-06T17:42:43Z</time>
   </trkpt>
   <trkpt lat="53.4497380" lon="-6.1579640">
    <ele>7.7</ele>
    <time>2025-11-06T17:42:48Z</time>
   </trkpt>
   <trkpt lat="53.4497890" lon="-6.1579600">
    <ele>7.5</ele>
    <time>2025-11-06T17:42:53Z</time>
   </trkpt>
   <trkpt lat="53.4498470" lon="-6.1579950">
    <ele>7.5</ele>
    <time>2025-11-06T17:42:59Z</time>
   </trkpt>
   <trkpt lat="53.4498740" lon="-6.1580630">
    <ele>7.0</ele>
    <time>2025-11-06T17:43:04Z</time>
   </trkpt>
   <trkpt lat="53.4498870" lon="-6.1581370">
    <ele>7.3</ele>
    <time>2025-11-06T17:43:10Z</time>
   </trkpt>
   <trkpt lat="53.4499200" lon="-6.1582450">
    <ele>7.5</ele>
    <time>2025-11-06T17:43:15Z</time>
   </trkpt>
   <trkpt lat="53.4499440" lon="-6.1583400">
    <ele>7.2</ele>
    <time>2025-11-06T17:43:20Z</time>
   </trkpt>
   <trkpt lat="53.4499450" lon="-6.1584170">
    <ele>6.2</ele>
    <time>2025-11-06T17:43:33Z</time>
   </trkpt>
   <trkpt lat="53.4499960" lon="-6.1584080">
    <ele>6.7</ele>
    <time>2025-11-06T17:43:57Z</time>
   </trkpt>
   <trkpt lat="53.4500120" lon="-6.1584800">
    <ele>6.7</ele>
    <time>2025-11-06T17:44:03Z</time>
   </trkpt>
   <trkpt lat="53.4499830" lon="-6.1586200">
    <ele>6.8</ele>
    <time>2025-11-06T17:44:08Z</time>
   </trkpt>
   <trkpt lat="53.4499670" lon="-6.1587460">
    <ele>6.9</ele>
    <time>2025-11-06T17:44:13Z</time>
   </trkpt>
   <trkpt lat="53.4499880" lon="-6.1588900">
    <ele>7.1</ele>
    <time>2025-11-06T17:44:19Z</time>
   </trkpt>
   <trkpt lat="53.4500290" lon="-6.1589880">
    <ele>7.2</ele>
    <time>2025-11-06T17:44:24Z</time>
   </trkpt>
   <trkpt lat="53.4500970" lon="-6.1590570">
    <ele>6.9</ele>
    <time>2025-11-06T17:44:29Z</time>
   </trkpt>
   <trkpt lat="53.4501340" lon="-6.1591020">
    <ele>7.0</ele>
    <time>2025-11-06T17:44:42Z</time>
   </trkpt>
   <trkpt lat="53.4502070" lon="-6.1590890">
    <ele>7.3</ele>
    <time>2025-11-06T17:44:47Z</time>
   </trkpt>
   <trkpt lat="53.4502640" lon="-6.1590400">
    <ele>7.6</ele>
    <time>2025-11-06T17:44:52Z</time>
   </trkpt>
   <trkpt lat="53.4502750" lon="-6.1589400">
    <ele>7.3</ele>
    <time>2025-11-06T17:44:57Z</time>
   </trkpt>
   <trkpt lat="53.4502690" lon="-6.1588420">
    <ele>6.9</ele>
    <time>2025-11-06T17:45:03Z</time>
   </trkpt>
   <trkpt lat="53.4503460" lon="-6.1587380">
    <ele>7.5</ele>
    <time>2025-11-06T17:45:08Z</time>
   </trkpt>
   <trkpt lat="53.4504110" lon="-6.1587230">
    <ele>8.3</ele>
    <time>2025-11-06T17:45:14Z</time>
   </trkpt>
   <trkpt lat="53.4504710" lon="-6.1587400">
    <ele>8.8</ele>
    <time>2025-11-06T17:45:19Z</time>
   </trkpt>
   <trkpt lat="53.4505490" lon="-6.1587400">
    <ele>9.0</ele>
    <time>2025-11-06T17:45:24Z</time>
   </trkpt>
   <trkpt lat="53.4506140" lon="-6.1587200">
    <ele>7.9</ele>
    <time>2025-11-06T17:45:30Z</time>
   </trkpt>
   <trkpt lat="53.4506720" lon="-6.1586810">
    <ele>7.7</ele>
    <time>2025-11-06T17:45:35Z</time>
   </trkpt>
   <trkpt lat="53.4507390" lon="-6.1586550">
    <ele>9.8</ele>
    <time>2025-11-06T17:45:40Z</time>
   </trkpt>
   <trkpt lat="53.4507950" lon="-6.1586130">
    <ele>10.4</ele>
    <time>2025-11-06T17:45:46Z</time>
   </trkpt>
   <trkpt lat="53.4508180" lon="-6.1585200">
    <ele>10.7</ele>
    <time>2025-11-06T17:45:51Z</time>
   </trkpt>
   <trkpt lat="53.4508620" lon="-6.1584370">
    <ele>10.2</ele>
    <time>2025-11-06T17:45:56Z</time>
   </trkpt>
   <trkpt lat="53.4508880" lon="-6.1583730">
    <ele>10.1</ele>
    <time>2025-11-06T17:46:03Z</time>
   </trkpt>
   <trkpt lat="53.4509390" lon="-6.1583180">
    <ele>10.1</ele>
    <time>2025-11-06T17:46:08Z</time>
   </trkpt>
   <trkpt lat="53.4509280" lon="-6.1582100">
    <ele>10.0</ele>
    <time>2025-11-06T17:46:13Z</time>
   </trkpt>
   <trkpt lat="53.4509030" lon="-6.1581220">
    <ele>10.0</ele>
    <time>2025-11-06T17:46:19Z</time>
   </trkpt>
   <trkpt lat="53.4509540" lon="-6.1580600">
    <ele>10.0</ele>
    <time>2025-11-06T17:46:24Z</time>
   </trkpt>
   <trkpt lat="53.4510030" lon="-6.1580010">
    <ele>9.4</ele>
    <time>2025-11-06T17:46:30Z</time>
   </trkpt>
   <trkpt lat="53.4510320" lon="-6.1578960">
    <ele>8.9</ele>
    <time>2025-11-06T17:46:35Z</time>
   </trkpt>
   <trkpt lat="53.4510470" lon="-6.1577910">
    <ele>8.6</ele>
    <time>2025-11-06T17:46:40Z</time>
   </trkpt>
   <trkpt lat="53.4510460" lon="-6.1576740">
    <ele>8.5</ele>
    <time>2025-11-06T17:46:45Z</time>
   </trkpt>
   <trkpt lat="53.4510220" lon="-6.1575250">
    <ele>8.6</ele>
    <time>2025-11-06T17:46:51Z</time>
   </trkpt>
   <trkpt lat="53.4510300" lon="-6.1574250">
    <ele>8.7</ele>
    <time>2025-11-06T17:46:56Z</time>
   </trkpt>
   <trkpt lat="53.4510470" lon="-6.1573150">
    <ele>8.8</ele>
    <time>2025-11-06T17:47:01Z</time>
   </trkpt>
   <trkpt lat="53.4510520" lon="-6.1572170">
    <ele>8.8</ele>
    <time>2025-11-06T17:47:06Z</time>
   </trkpt>
   <trkpt lat="53.4510500" lon="-6.1571320">
    <ele>8.9</ele>
    <time>2025-11-06T17:47:12Z</time>
   </trkpt>
   <trkpt lat="53.4510690" lon="-6.1570620">
    <ele>8.9</ele>
    <time>2025-11-06T17:47:18Z</time>
   </trkpt>
  </trkseg>
 </trk>
</gpx>
